<?xml version="1.0" encoding="UTF-8" standalone="no" ?>
<gpx xmlns="http://www.topografix.com/GPX/1/1" xmlns:xsi="http://www.w3.org/2001/XMLSchema-instance" xsi:schemaLocation="http://www.topografix.com/GPX/1/1 http://www.topografix.com/GPX/1/1/gpx.xsd" version="1.1" creator="VisuGPX - https://www.visugpx.com">
  <metadata>
    <name>St clair 36</name>
  </metadata>
  <trk>
    <name><![CDATA[St clair 36_1]]></name>
    <trkseg>
      <trkpt lat="48.74775" lon="-0.57205">
        <ele>174.4</ele>
        <time>2013-10-06T07:53:09Z</time>
      </trkpt>
      <trkpt lat="48.74771" lon="-0.57193">
        <ele>174.4</ele>
        <time>2013-10-06T07:53:25Z</time>
      </trkpt>
      <trkpt lat="48.74786" lon="-0.57191">
        <ele>174.2</ele>
        <time>2013-10-06T07:53:39Z</time>
      </trkpt>
      <trkpt lat="48.74789" lon="-0.57186">
        <ele>174.2</ele>
        <time>2013-10-06T07:53:40Z</time>
      </trkpt>
      <trkpt lat="48.74792" lon="-0.57181">
        <ele>174.2</ele>
        <time>2013-10-06T07:53:41Z</time>
      </trkpt>
      <trkpt lat="48.74794" lon="-0.57175">
        <ele>174.2</ele>
        <time>2013-10-06T07:53:42Z</time>
      </trkpt>
      <trkpt lat="48.74811" lon="-0.57131">
        <ele>174.4</ele>
        <time>2013-10-06T07:53:48Z</time>
      </trkpt>
      <trkpt lat="48.7481" lon="-0.57123">
        <ele>174.6</ele>
        <time>2013-10-06T07:53:49Z</time>
      </trkpt>
      <trkpt lat="48.74808" lon="-0.57118">
        <ele>174.6</ele>
        <time>2013-10-06T07:53:50Z</time>
      </trkpt>
      <trkpt lat="48.74805" lon="-0.57114">
        <ele>174.8</ele>
        <time>2013-10-06T07:53:51Z</time>
      </trkpt>
      <trkpt lat="48.74801" lon="-0.5711">
        <ele>174.8</ele>
        <time>2013-10-06T07:53:52Z</time>
      </trkpt>
      <trkpt lat="48.74789" lon="-0.57096">
        <ele>174.8</ele>
        <time>2013-10-06T07:53:55Z</time>
      </trkpt>
      <trkpt lat="48.74783" lon="-0.57092">
        <ele>175</ele>
        <time>2013-10-06T07:53:56Z</time>
      </trkpt>
      <trkpt lat="48.74774" lon="-0.57085">
        <ele>174.8</ele>
        <time>2013-10-06T07:53:57Z</time>
      </trkpt>
      <trkpt lat="48.74773" lon="-0.57079">
        <ele>174.8</ele>
        <time>2013-10-06T07:53:58Z</time>
      </trkpt>
      <trkpt lat="48.74769" lon="-0.57071">
        <ele>174.8</ele>
        <time>2013-10-06T07:53:59Z</time>
      </trkpt>
      <trkpt lat="48.74764" lon="-0.57063">
        <ele>174.8</ele>
        <time>2013-10-06T07:54:00Z</time>
      </trkpt>
      <trkpt lat="48.74761" lon="-0.57055">
        <ele>174.8</ele>
        <time>2013-10-06T07:54:01Z</time>
      </trkpt>
      <trkpt lat="48.74759" lon="-0.57048">
        <ele>174.8</ele>
        <time>2013-10-06T07:54:02Z</time>
      </trkpt>
      <trkpt lat="48.74758" lon="-0.57043">
        <ele>174.6</ele>
        <time>2013-10-06T07:54:03Z</time>
      </trkpt>
      <trkpt lat="48.74756" lon="-0.57036">
        <ele>174.6</ele>
        <time>2013-10-06T07:54:05Z</time>
      </trkpt>
      <trkpt lat="48.74758" lon="-0.5703">
        <ele>174.6</ele>
        <time>2013-10-06T07:54:06Z</time>
      </trkpt>
      <trkpt lat="48.7476" lon="-0.57024">
        <ele>174.6</ele>
        <time>2013-10-06T07:54:07Z</time>
      </trkpt>
      <trkpt lat="48.74781" lon="-0.56976">
        <ele>175</ele>
        <time>2013-10-06T07:54:13Z</time>
      </trkpt>
      <trkpt lat="48.74785" lon="-0.5697">
        <ele>175.2</ele>
        <time>2013-10-06T07:54:14Z</time>
      </trkpt>
      <trkpt lat="48.74789" lon="-0.56964">
        <ele>175.2</ele>
        <time>2013-10-06T07:54:15Z</time>
      </trkpt>
      <trkpt lat="48.74795" lon="-0.56959">
        <ele>175.4</ele>
        <time>2013-10-06T07:54:16Z</time>
      </trkpt>
      <trkpt lat="48.74801" lon="-0.56955">
        <ele>175.6</ele>
        <time>2013-10-06T07:54:17Z</time>
      </trkpt>
      <trkpt lat="48.74847" lon="-0.56915">
        <ele>178.4</ele>
        <time>2013-10-06T07:54:26Z</time>
      </trkpt>
      <trkpt lat="48.74852" lon="-0.56909">
        <ele>178.6</ele>
        <time>2013-10-06T07:54:27Z</time>
      </trkpt>
      <trkpt lat="48.74893" lon="-0.56855">
        <ele>182.2</ele>
        <time>2013-10-06T07:54:36Z</time>
      </trkpt>
      <trkpt lat="48.74928" lon="-0.56805">
        <ele>185.4</ele>
        <time>2013-10-06T07:54:44Z</time>
      </trkpt>
      <trkpt lat="48.74962" lon="-0.56753">
        <ele>188.4</ele>
        <time>2013-10-06T07:54:52Z</time>
      </trkpt>
      <trkpt lat="48.75" lon="-0.56695">
        <ele>191.6</ele>
        <time>2013-10-06T07:55:01Z</time>
      </trkpt>
      <trkpt lat="48.7502" lon="-0.56663">
        <ele>193.8</ele>
        <time>2013-10-06T07:55:06Z</time>
      </trkpt>
      <trkpt lat="48.75022" lon="-0.56655">
        <ele>194</ele>
        <time>2013-10-06T07:55:07Z</time>
      </trkpt>
      <trkpt lat="48.75023" lon="-0.56646">
        <ele>194.4</ele>
        <time>2013-10-06T07:55:08Z</time>
      </trkpt>
      <trkpt lat="48.75029" lon="-0.56611">
        <ele>195.6</ele>
        <time>2013-10-06T07:55:12Z</time>
      </trkpt>
      <trkpt lat="48.7503" lon="-0.56601">
        <ele>195.8</ele>
        <time>2013-10-06T07:55:13Z</time>
      </trkpt>
      <trkpt lat="48.75031" lon="-0.56493">
        <ele>199</ele>
        <time>2013-10-06T07:55:25Z</time>
      </trkpt>
      <trkpt lat="48.7503" lon="-0.56373">
        <ele>202</ele>
        <time>2013-10-06T07:55:39Z</time>
      </trkpt>
      <trkpt lat="48.7503" lon="-0.56364">
        <ele>202.2</ele>
        <time>2013-10-06T07:55:40Z</time>
      </trkpt>
      <trkpt lat="48.7503" lon="-0.56356">
        <ele>202.4</ele>
        <time>2013-10-06T07:55:41Z</time>
      </trkpt>
      <trkpt lat="48.75031" lon="-0.56348">
        <ele>202.6</ele>
        <time>2013-10-06T07:55:42Z</time>
      </trkpt>
      <trkpt lat="48.75032" lon="-0.56339">
        <ele>202.8</ele>
        <time>2013-10-06T07:55:43Z</time>
      </trkpt>
      <trkpt lat="48.75034" lon="-0.56331">
        <ele>203</ele>
        <time>2013-10-06T07:55:44Z</time>
      </trkpt>
      <trkpt lat="48.75036" lon="-0.56323">
        <ele>203.2</ele>
        <time>2013-10-06T07:55:45Z</time>
      </trkpt>
      <trkpt lat="48.75036" lon="-0.56315">
        <ele>203.4</ele>
        <time>2013-10-06T07:55:46Z</time>
      </trkpt>
      <trkpt lat="48.75038" lon="-0.56308">
        <ele>203.6</ele>
        <time>2013-10-06T07:55:47Z</time>
      </trkpt>
      <trkpt lat="48.75039" lon="-0.563">
        <ele>203.8</ele>
        <time>2013-10-06T07:55:48Z</time>
      </trkpt>
      <trkpt lat="48.7504" lon="-0.56291">
        <ele>203.8</ele>
        <time>2013-10-06T07:55:49Z</time>
      </trkpt>
      <trkpt lat="48.7504" lon="-0.56282">
        <ele>204</ele>
        <time>2013-10-06T07:55:50Z</time>
      </trkpt>
      <trkpt lat="48.75041" lon="-0.56273">
        <ele>204</ele>
        <time>2013-10-06T07:55:51Z</time>
      </trkpt>
      <trkpt lat="48.75041" lon="-0.56264">
        <ele>204.2</ele>
        <time>2013-10-06T07:55:52Z</time>
      </trkpt>
      <trkpt lat="48.75041" lon="-0.56256">
        <ele>204.2</ele>
        <time>2013-10-06T07:55:53Z</time>
      </trkpt>
      <trkpt lat="48.75041" lon="-0.5623">
        <ele>204.4</ele>
        <time>2013-10-06T07:55:56Z</time>
      </trkpt>
      <trkpt lat="48.75046" lon="-0.56177">
        <ele>204.8</ele>
        <time>2013-10-06T07:56:02Z</time>
      </trkpt>
      <trkpt lat="48.75046" lon="-0.56168">
        <ele>205</ele>
        <time>2013-10-06T07:56:03Z</time>
      </trkpt>
      <trkpt lat="48.75047" lon="-0.5616">
        <ele>205</ele>
        <time>2013-10-06T07:56:04Z</time>
      </trkpt>
      <trkpt lat="48.75055" lon="-0.56071">
        <ele>205.8</ele>
        <time>2013-10-06T07:56:14Z</time>
      </trkpt>
      <trkpt lat="48.75055" lon="-0.56055">
        <ele>205.8</ele>
        <time>2013-10-06T07:56:16Z</time>
      </trkpt>
      <trkpt lat="48.75056" lon="-0.56042">
        <ele>206</ele>
        <time>2013-10-06T07:56:18Z</time>
      </trkpt>
      <trkpt lat="48.75057" lon="-0.56035">
        <ele>206.2</ele>
        <time>2013-10-06T07:56:19Z</time>
      </trkpt>
      <trkpt lat="48.75057" lon="-0.5603">
        <ele>206.2</ele>
        <time>2013-10-06T07:56:20Z</time>
      </trkpt>
      <trkpt lat="48.75058" lon="-0.56004">
        <ele>206.8</ele>
        <time>2013-10-06T07:56:32Z</time>
      </trkpt>
      <trkpt lat="48.75057" lon="-0.55994">
        <ele>206.8</ele>
        <time>2013-10-06T07:56:39Z</time>
      </trkpt>
      <trkpt lat="48.75056" lon="-0.55982">
        <ele>207</ele>
        <time>2013-10-06T07:56:45Z</time>
      </trkpt>
      <trkpt lat="48.75058" lon="-0.55979">
        <ele>207</ele>
        <time>2013-10-06T07:56:49Z</time>
      </trkpt>
      <trkpt lat="48.75061" lon="-0.55979">
        <ele>207</ele>
        <time>2013-10-06T07:56:50Z</time>
      </trkpt>
      <trkpt lat="48.75062" lon="-0.55982">
        <ele>207</ele>
        <time>2013-10-06T07:56:51Z</time>
      </trkpt>
      <trkpt lat="48.75062" lon="-0.55988">
        <ele>207</ele>
        <time>2013-10-06T07:56:53Z</time>
      </trkpt>
      <trkpt lat="48.75061" lon="-0.55991">
        <ele>207</ele>
        <time>2013-10-06T07:56:54Z</time>
      </trkpt>
      <trkpt lat="48.75061" lon="-0.56016">
        <ele>206.8</ele>
        <time>2013-10-06T07:56:59Z</time>
      </trkpt>
      <trkpt lat="48.7506" lon="-0.56062">
        <ele>206.6</ele>
        <time>2013-10-06T07:57:05Z</time>
      </trkpt>
      <trkpt lat="48.75058" lon="-0.56119">
        <ele>206.4</ele>
        <time>2013-10-06T07:57:12Z</time>
      </trkpt>
      <trkpt lat="48.75055" lon="-0.56186">
        <ele>205.6</ele>
        <time>2013-10-06T07:57:21Z</time>
      </trkpt>
      <trkpt lat="48.75052" lon="-0.56258">
        <ele>204.8</ele>
        <time>2013-10-06T07:57:34Z</time>
      </trkpt>
      <trkpt lat="48.75052" lon="-0.56264">
        <ele>204.8</ele>
        <time>2013-10-06T07:57:35Z</time>
      </trkpt>
      <trkpt lat="48.75052" lon="-0.56314">
        <ele>204.4</ele>
        <time>2013-10-06T07:57:42Z</time>
      </trkpt>
      <trkpt lat="48.75052" lon="-0.56334">
        <ele>204.2</ele>
        <time>2013-10-06T07:57:45Z</time>
      </trkpt>
      <trkpt lat="48.75052" lon="-0.56341">
        <ele>204.2</ele>
        <time>2013-10-06T07:57:46Z</time>
      </trkpt>
      <trkpt lat="48.75048" lon="-0.56402">
        <ele>203.4</ele>
        <time>2013-10-06T07:57:57Z</time>
      </trkpt>
      <trkpt lat="48.75049" lon="-0.56429">
        <ele>203</ele>
        <time>2013-10-06T07:58:01Z</time>
      </trkpt>
      <trkpt lat="48.7505" lon="-0.56436">
        <ele>203</ele>
        <time>2013-10-06T07:58:02Z</time>
      </trkpt>
      <trkpt lat="48.7505" lon="-0.56443">
        <ele>202.8</ele>
        <time>2013-10-06T07:58:03Z</time>
      </trkpt>
      <trkpt lat="48.7505" lon="-0.5645">
        <ele>202.8</ele>
        <time>2013-10-06T07:58:04Z</time>
      </trkpt>
      <trkpt lat="48.7505" lon="-0.56458">
        <ele>202.6</ele>
        <time>2013-10-06T07:58:05Z</time>
      </trkpt>
      <trkpt lat="48.7504" lon="-0.56565">
        <ele>200</ele>
        <time>2013-10-06T07:58:17Z</time>
      </trkpt>
      <trkpt lat="48.75037" lon="-0.56576">
        <ele>199.8</ele>
        <time>2013-10-06T07:58:18Z</time>
      </trkpt>
      <trkpt lat="48.75032" lon="-0.56605">
        <ele>199.4</ele>
        <time>2013-10-06T07:58:21Z</time>
      </trkpt>
      <trkpt lat="48.75034" lon="-0.56616">
        <ele>199</ele>
        <time>2013-10-06T07:58:23Z</time>
      </trkpt>
      <trkpt lat="48.75035" lon="-0.5662">
        <ele>198.8</ele>
        <time>2013-10-06T07:58:24Z</time>
      </trkpt>
      <trkpt lat="48.75036" lon="-0.56623">
        <ele>198.6</ele>
        <time>2013-10-06T07:58:25Z</time>
      </trkpt>
      <trkpt lat="48.75038" lon="-0.56649">
        <ele>197.8</ele>
        <time>2013-10-06T07:58:30Z</time>
      </trkpt>
      <trkpt lat="48.75038" lon="-0.56655">
        <ele>197.8</ele>
        <time>2013-10-06T07:58:31Z</time>
      </trkpt>
      <trkpt lat="48.75035" lon="-0.56665">
        <ele>197.6</ele>
        <time>2013-10-06T07:58:33Z</time>
      </trkpt>
      <trkpt lat="48.75031" lon="-0.56667">
        <ele>197.4</ele>
        <time>2013-10-06T07:58:34Z</time>
      </trkpt>
      <trkpt lat="48.75025" lon="-0.5667">
        <ele>197.4</ele>
        <time>2013-10-06T07:58:35Z</time>
      </trkpt>
      <trkpt lat="48.7502" lon="-0.56672">
        <ele>197.2</ele>
        <time>2013-10-06T07:58:36Z</time>
      </trkpt>
      <trkpt lat="48.75014" lon="-0.56676">
        <ele>197.2</ele>
        <time>2013-10-06T07:58:37Z</time>
      </trkpt>
      <trkpt lat="48.75009" lon="-0.56682">
        <ele>197</ele>
        <time>2013-10-06T07:58:38Z</time>
      </trkpt>
      <trkpt lat="48.75005" lon="-0.56689">
        <ele>196.8</ele>
        <time>2013-10-06T07:58:39Z</time>
      </trkpt>
      <trkpt lat="48.74951" lon="-0.56778">
        <ele>193.8</ele>
        <time>2013-10-06T07:58:50Z</time>
      </trkpt>
      <trkpt lat="48.74918" lon="-0.56833">
        <ele>191</ele>
        <time>2013-10-06T07:58:57Z</time>
      </trkpt>
      <trkpt lat="48.749" lon="-0.56856">
        <ele>187.8</ele>
        <time>2013-10-06T07:59:06Z</time>
      </trkpt>
      <trkpt lat="48.74887" lon="-0.56891">
        <ele>185.8</ele>
        <time>2013-10-06T07:59:17Z</time>
      </trkpt>
      <trkpt lat="48.74885" lon="-0.56895">
        <ele>185.8</ele>
        <time>2013-10-06T07:59:18Z</time>
      </trkpt>
      <trkpt lat="48.74882" lon="-0.56901">
        <ele>185.8</ele>
        <time>2013-10-06T07:59:19Z</time>
      </trkpt>
      <trkpt lat="48.74878" lon="-0.56913">
        <ele>185.6</ele>
        <time>2013-10-06T07:59:21Z</time>
      </trkpt>
      <trkpt lat="48.74875" lon="-0.56919">
        <ele>185.4</ele>
        <time>2013-10-06T07:59:22Z</time>
      </trkpt>
      <trkpt lat="48.74854" lon="-0.56988">
        <ele>183.8</ele>
        <time>2013-10-06T07:59:32Z</time>
      </trkpt>
      <trkpt lat="48.74847" lon="-0.57009">
        <ele>183.2</ele>
        <time>2013-10-06T07:59:35Z</time>
      </trkpt>
      <trkpt lat="48.74824" lon="-0.57095">
        <ele>180</ele>
        <time>2013-10-06T07:59:46Z</time>
      </trkpt>
      <trkpt lat="48.748" lon="-0.57174">
        <ele>176.8</ele>
        <time>2013-10-06T07:59:56Z</time>
      </trkpt>
      <trkpt lat="48.74782" lon="-0.57203">
        <ele>175.2</ele>
        <time>2013-10-06T08:00:05Z</time>
      </trkpt>
      <trkpt lat="48.74782" lon="-0.57205">
        <ele>175.2</ele>
        <time>2013-10-06T08:00:11Z</time>
      </trkpt>
      <trkpt lat="48.74776" lon="-0.57215">
        <ele>175.4</ele>
        <time>2013-10-06T08:01:41Z</time>
      </trkpt>
      <trkpt lat="48.74761" lon="-0.5726">
        <ele>175.6</ele>
        <time>2013-10-06T08:01:53Z</time>
      </trkpt>
      <trkpt lat="48.74746" lon="-0.57309">
        <ele>176.2</ele>
        <time>2013-10-06T08:02:04Z</time>
      </trkpt>
      <trkpt lat="48.74729" lon="-0.57363">
        <ele>177.6</ele>
        <time>2013-10-06T08:02:15Z</time>
      </trkpt>
      <trkpt lat="48.747" lon="-0.57415">
        <ele>178.8</ele>
        <time>2013-10-06T08:02:27Z</time>
      </trkpt>
      <trkpt lat="48.74688" lon="-0.57473">
        <ele>179.8</ele>
        <time>2013-10-06T08:02:38Z</time>
      </trkpt>
      <trkpt lat="48.7466" lon="-0.5754">
        <ele>181.4</ele>
        <time>2013-10-06T08:02:52Z</time>
      </trkpt>
      <trkpt lat="48.74632" lon="-0.5762">
        <ele>182.4</ele>
        <time>2013-10-06T08:03:08Z</time>
      </trkpt>
      <trkpt lat="48.74602" lon="-0.57698">
        <ele>184.2</ele>
        <time>2013-10-06T08:03:23Z</time>
      </trkpt>
      <trkpt lat="48.74591" lon="-0.57722">
        <ele>183.6</ele>
        <time>2013-10-06T08:03:27Z</time>
      </trkpt>
      <trkpt lat="48.74583" lon="-0.57741">
        <ele>183.2</ele>
        <time>2013-10-06T08:03:30Z</time>
      </trkpt>
      <trkpt lat="48.74576" lon="-0.57767">
        <ele>183</ele>
        <time>2013-10-06T08:03:34Z</time>
      </trkpt>
      <trkpt lat="48.74574" lon="-0.57773">
        <ele>183</ele>
        <time>2013-10-06T08:03:35Z</time>
      </trkpt>
      <trkpt lat="48.74571" lon="-0.57786">
        <ele>183</ele>
        <time>2013-10-06T08:03:37Z</time>
      </trkpt>
      <trkpt lat="48.74568" lon="-0.57792">
        <ele>183</ele>
        <time>2013-10-06T08:03:38Z</time>
      </trkpt>
      <trkpt lat="48.74566" lon="-0.57799">
        <ele>183</ele>
        <time>2013-10-06T08:03:39Z</time>
      </trkpt>
      <trkpt lat="48.74562" lon="-0.57812">
        <ele>182.8</ele>
        <time>2013-10-06T08:03:41Z</time>
      </trkpt>
      <trkpt lat="48.74524" lon="-0.57905">
        <ele>183</ele>
        <time>2013-10-06T08:03:56Z</time>
      </trkpt>
      <trkpt lat="48.74484" lon="-0.58007">
        <ele>183.2</ele>
        <time>2013-10-06T08:04:12Z</time>
      </trkpt>
      <trkpt lat="48.74439" lon="-0.58109">
        <ele>184</ele>
        <time>2013-10-06T08:04:29Z</time>
      </trkpt>
      <trkpt lat="48.74432" lon="-0.58126">
        <ele>184</ele>
        <time>2013-10-06T08:04:32Z</time>
      </trkpt>
      <trkpt lat="48.74429" lon="-0.58133">
        <ele>184</ele>
        <time>2013-10-06T08:04:33Z</time>
      </trkpt>
      <trkpt lat="48.74391" lon="-0.58221">
        <ele>184.8</ele>
        <time>2013-10-06T08:04:47Z</time>
      </trkpt>
      <trkpt lat="48.74348" lon="-0.58308">
        <ele>185.4</ele>
        <time>2013-10-06T08:05:01Z</time>
      </trkpt>
      <trkpt lat="48.74345" lon="-0.58315">
        <ele>185.4</ele>
        <time>2013-10-06T08:05:02Z</time>
      </trkpt>
      <trkpt lat="48.74308" lon="-0.58392">
        <ele>186.2</ele>
        <time>2013-10-06T08:05:15Z</time>
      </trkpt>
      <trkpt lat="48.74262" lon="-0.58485">
        <ele>187.4</ele>
        <time>2013-10-06T08:05:31Z</time>
      </trkpt>
      <trkpt lat="48.74254" lon="-0.58503">
        <ele>187.6</ele>
        <time>2013-10-06T08:05:34Z</time>
      </trkpt>
      <trkpt lat="48.74219" lon="-0.58573">
        <ele>188.8</ele>
        <time>2013-10-06T08:05:46Z</time>
      </trkpt>
      <trkpt lat="48.742" lon="-0.58599">
        <ele>188.6</ele>
        <time>2013-10-06T08:05:51Z</time>
      </trkpt>
      <trkpt lat="48.74193" lon="-0.58611">
        <ele>188.6</ele>
        <time>2013-10-06T08:05:53Z</time>
      </trkpt>
      <trkpt lat="48.74133" lon="-0.58692">
        <ele>188.4</ele>
        <time>2013-10-06T08:06:08Z</time>
      </trkpt>
      <trkpt lat="48.74128" lon="-0.58698">
        <ele>188.4</ele>
        <time>2013-10-06T08:06:09Z</time>
      </trkpt>
      <trkpt lat="48.74117" lon="-0.58716">
        <ele>188.4</ele>
        <time>2013-10-06T08:06:12Z</time>
      </trkpt>
      <trkpt lat="48.74112" lon="-0.58721">
        <ele>188.4</ele>
        <time>2013-10-06T08:06:13Z</time>
      </trkpt>
      <trkpt lat="48.74107" lon="-0.58727">
        <ele>188.4</ele>
        <time>2013-10-06T08:06:14Z</time>
      </trkpt>
      <trkpt lat="48.74098" lon="-0.58739">
        <ele>188.4</ele>
        <time>2013-10-06T08:06:16Z</time>
      </trkpt>
      <trkpt lat="48.7405" lon="-0.58796">
        <ele>188.2</ele>
        <time>2013-10-06T08:06:26Z</time>
      </trkpt>
      <trkpt lat="48.74045" lon="-0.58803">
        <ele>188.2</ele>
        <time>2013-10-06T08:06:27Z</time>
      </trkpt>
      <trkpt lat="48.74041" lon="-0.5881">
        <ele>188.2</ele>
        <time>2013-10-06T08:06:28Z</time>
      </trkpt>
      <trkpt lat="48.74034" lon="-0.58834">
        <ele>187.8</ele>
        <time>2013-10-06T08:06:31Z</time>
      </trkpt>
      <trkpt lat="48.74005" lon="-0.58957">
        <ele>187.4</ele>
        <time>2013-10-06T08:06:47Z</time>
      </trkpt>
      <trkpt lat="48.73977" lon="-0.59076">
        <ele>188.6</ele>
        <time>2013-10-06T08:07:03Z</time>
      </trkpt>
      <trkpt lat="48.73976" lon="-0.59084">
        <ele>188.6</ele>
        <time>2013-10-06T08:07:04Z</time>
      </trkpt>
      <trkpt lat="48.73966" lon="-0.59132">
        <ele>189.2</ele>
        <time>2013-10-06T08:07:11Z</time>
      </trkpt>
      <trkpt lat="48.73932" lon="-0.59218">
        <ele>189.8</ele>
        <time>2013-10-06T08:07:25Z</time>
      </trkpt>
      <trkpt lat="48.7393" lon="-0.59224">
        <ele>189.8</ele>
        <time>2013-10-06T08:07:26Z</time>
      </trkpt>
      <trkpt lat="48.73928" lon="-0.59236">
        <ele>189.8</ele>
        <time>2013-10-06T08:07:28Z</time>
      </trkpt>
      <trkpt lat="48.73926" lon="-0.59241">
        <ele>190</ele>
        <time>2013-10-06T08:07:29Z</time>
      </trkpt>
      <trkpt lat="48.73923" lon="-0.59246">
        <ele>190</ele>
        <time>2013-10-06T08:07:30Z</time>
      </trkpt>
      <trkpt lat="48.73897" lon="-0.59297">
        <ele>190.8</ele>
        <time>2013-10-06T08:07:39Z</time>
      </trkpt>
      <trkpt lat="48.73895" lon="-0.59303">
        <ele>190.8</ele>
        <time>2013-10-06T08:07:40Z</time>
      </trkpt>
      <trkpt lat="48.73881" lon="-0.59333">
        <ele>191</ele>
        <time>2013-10-06T08:07:45Z</time>
      </trkpt>
      <trkpt lat="48.73878" lon="-0.59339">
        <ele>191.2</ele>
        <time>2013-10-06T08:07:46Z</time>
      </trkpt>
      <trkpt lat="48.73829" lon="-0.59457">
        <ele>191.8</ele>
        <time>2013-10-06T08:08:05Z</time>
      </trkpt>
      <trkpt lat="48.73785" lon="-0.59575">
        <ele>192.8</ele>
        <time>2013-10-06T08:08:23Z</time>
      </trkpt>
      <trkpt lat="48.73741" lon="-0.59664">
        <ele>193.4</ele>
        <time>2013-10-06T08:08:38Z</time>
      </trkpt>
      <trkpt lat="48.73696" lon="-0.59752">
        <ele>193.2</ele>
        <time>2013-10-06T08:08:53Z</time>
      </trkpt>
      <trkpt lat="48.73646" lon="-0.59839">
        <ele>193.8</ele>
        <time>2013-10-06T08:09:10Z</time>
      </trkpt>
      <trkpt lat="48.73612" lon="-0.599">
        <ele>194.2</ele>
        <time>2013-10-06T08:09:23Z</time>
      </trkpt>
      <trkpt lat="48.73612" lon="-0.59906">
        <ele>194.2</ele>
        <time>2013-10-06T08:09:24Z</time>
      </trkpt>
      <trkpt lat="48.73615" lon="-0.59912">
        <ele>194.2</ele>
        <time>2013-10-06T08:09:25Z</time>
      </trkpt>
      <trkpt lat="48.73618" lon="-0.59916">
        <ele>194.2</ele>
        <time>2013-10-06T08:09:26Z</time>
      </trkpt>
      <trkpt lat="48.73622" lon="-0.59921">
        <ele>194</ele>
        <time>2013-10-06T08:09:27Z</time>
      </trkpt>
      <trkpt lat="48.73626" lon="-0.59926">
        <ele>194</ele>
        <time>2013-10-06T08:09:28Z</time>
      </trkpt>
      <trkpt lat="48.73629" lon="-0.59933">
        <ele>194</ele>
        <time>2013-10-06T08:09:29Z</time>
      </trkpt>
      <trkpt lat="48.73628" lon="-0.5994">
        <ele>194</ele>
        <time>2013-10-06T08:09:30Z</time>
      </trkpt>
      <trkpt lat="48.73627" lon="-0.59947">
        <ele>193.8</ele>
        <time>2013-10-06T08:09:31Z</time>
      </trkpt>
      <trkpt lat="48.73624" lon="-0.59952">
        <ele>193.8</ele>
        <time>2013-10-06T08:09:32Z</time>
      </trkpt>
      <trkpt lat="48.7362" lon="-0.59956">
        <ele>193.8</ele>
        <time>2013-10-06T08:09:33Z</time>
      </trkpt>
      <trkpt lat="48.73616" lon="-0.59961">
        <ele>193.8</ele>
        <time>2013-10-06T08:09:34Z</time>
      </trkpt>
      <trkpt lat="48.73609" lon="-0.5997">
        <ele>193.8</ele>
        <time>2013-10-06T08:09:36Z</time>
      </trkpt>
      <trkpt lat="48.73588" lon="-0.60009">
        <ele>194.6</ele>
        <time>2013-10-06T08:09:43Z</time>
      </trkpt>
      <trkpt lat="48.73586" lon="-0.60015">
        <ele>194.6</ele>
        <time>2013-10-06T08:09:44Z</time>
      </trkpt>
      <trkpt lat="48.7358" lon="-0.60033">
        <ele>195</ele>
        <time>2013-10-06T08:09:47Z</time>
      </trkpt>
      <trkpt lat="48.73578" lon="-0.60039">
        <ele>195.2</ele>
        <time>2013-10-06T08:09:48Z</time>
      </trkpt>
      <trkpt lat="48.73576" lon="-0.60044">
        <ele>195.2</ele>
        <time>2013-10-06T08:09:49Z</time>
      </trkpt>
      <trkpt lat="48.73553" lon="-0.60118">
        <ele>196.2</ele>
        <time>2013-10-06T08:10:01Z</time>
      </trkpt>
      <trkpt lat="48.73548" lon="-0.60137">
        <ele>196.4</ele>
        <time>2013-10-06T08:10:04Z</time>
      </trkpt>
      <trkpt lat="48.73546" lon="-0.60143">
        <ele>196.4</ele>
        <time>2013-10-06T08:10:05Z</time>
      </trkpt>
      <trkpt lat="48.73543" lon="-0.60149">
        <ele>196.4</ele>
        <time>2013-10-06T08:10:06Z</time>
      </trkpt>
      <trkpt lat="48.7353" lon="-0.60178">
        <ele>196.6</ele>
        <time>2013-10-06T08:10:11Z</time>
      </trkpt>
      <trkpt lat="48.73519" lon="-0.60201">
        <ele>196.8</ele>
        <time>2013-10-06T08:10:15Z</time>
      </trkpt>
      <trkpt lat="48.73517" lon="-0.60207">
        <ele>196.8</ele>
        <time>2013-10-06T08:10:16Z</time>
      </trkpt>
      <trkpt lat="48.73515" lon="-0.60213">
        <ele>196.8</ele>
        <time>2013-10-06T08:10:17Z</time>
      </trkpt>
      <trkpt lat="48.73501" lon="-0.60295">
        <ele>197.2</ele>
        <time>2013-10-06T08:10:29Z</time>
      </trkpt>
      <trkpt lat="48.73499" lon="-0.60309">
        <ele>197.2</ele>
        <time>2013-10-06T08:10:31Z</time>
      </trkpt>
      <trkpt lat="48.73487" lon="-0.60381">
        <ele>196.8</ele>
        <time>2013-10-06T08:10:41Z</time>
      </trkpt>
      <trkpt lat="48.73486" lon="-0.60396">
        <ele>196.6</ele>
        <time>2013-10-06T08:10:43Z</time>
      </trkpt>
      <trkpt lat="48.73485" lon="-0.60404">
        <ele>196.6</ele>
        <time>2013-10-06T08:10:44Z</time>
      </trkpt>
      <trkpt lat="48.73485" lon="-0.60411">
        <ele>196.6</ele>
        <time>2013-10-06T08:10:45Z</time>
      </trkpt>
      <trkpt lat="48.73485" lon="-0.60418">
        <ele>196.6</ele>
        <time>2013-10-06T08:10:46Z</time>
      </trkpt>
      <trkpt lat="48.73484" lon="-0.60424">
        <ele>196.6</ele>
        <time>2013-10-06T08:10:47Z</time>
      </trkpt>
      <trkpt lat="48.73483" lon="-0.60432">
        <ele>196.6</ele>
        <time>2013-10-06T08:10:48Z</time>
      </trkpt>
      <trkpt lat="48.73482" lon="-0.6044">
        <ele>196.6</ele>
        <time>2013-10-06T08:10:49Z</time>
      </trkpt>
      <trkpt lat="48.73476" lon="-0.60474">
        <ele>196.4</ele>
        <time>2013-10-06T08:10:54Z</time>
      </trkpt>
      <trkpt lat="48.73474" lon="-0.60482">
        <ele>196.4</ele>
        <time>2013-10-06T08:10:55Z</time>
      </trkpt>
      <trkpt lat="48.73466" lon="-0.60508">
        <ele>196.4</ele>
        <time>2013-10-06T08:10:59Z</time>
      </trkpt>
      <trkpt lat="48.73463" lon="-0.60513">
        <ele>196.4</ele>
        <time>2013-10-06T08:11:00Z</time>
      </trkpt>
      <trkpt lat="48.73459" lon="-0.60518">
        <ele>196.4</ele>
        <time>2013-10-06T08:11:01Z</time>
      </trkpt>
      <trkpt lat="48.73449" lon="-0.60536">
        <ele>196.4</ele>
        <time>2013-10-06T08:11:04Z</time>
      </trkpt>
      <trkpt lat="48.73447" lon="-0.60542">
        <ele>196.4</ele>
        <time>2013-10-06T08:11:05Z</time>
      </trkpt>
      <trkpt lat="48.73445" lon="-0.60549">
        <ele>196.4</ele>
        <time>2013-10-06T08:11:06Z</time>
      </trkpt>
      <trkpt lat="48.73434" lon="-0.60586">
        <ele>196.6</ele>
        <time>2013-10-06T08:11:12Z</time>
      </trkpt>
      <trkpt lat="48.73428" lon="-0.60615">
        <ele>196.4</ele>
        <time>2013-10-06T08:11:16Z</time>
      </trkpt>
      <trkpt lat="48.73426" lon="-0.60623">
        <ele>196.4</ele>
        <time>2013-10-06T08:11:17Z</time>
      </trkpt>
      <trkpt lat="48.73425" lon="-0.6063">
        <ele>196.4</ele>
        <time>2013-10-06T08:11:18Z</time>
      </trkpt>
      <trkpt lat="48.73415" lon="-0.60671">
        <ele>196.2</ele>
        <time>2013-10-06T08:11:23Z</time>
      </trkpt>
      <trkpt lat="48.73412" lon="-0.60678">
        <ele>196.2</ele>
        <time>2013-10-06T08:11:24Z</time>
      </trkpt>
      <trkpt lat="48.73406" lon="-0.60692">
        <ele>196.2</ele>
        <time>2013-10-06T08:11:26Z</time>
      </trkpt>
      <trkpt lat="48.73392" lon="-0.60741">
        <ele>195.2</ele>
        <time>2013-10-06T08:11:33Z</time>
      </trkpt>
      <trkpt lat="48.7339" lon="-0.60747">
        <ele>195.2</ele>
        <time>2013-10-06T08:11:34Z</time>
      </trkpt>
      <trkpt lat="48.7338" lon="-0.60774">
        <ele>195</ele>
        <time>2013-10-06T08:11:39Z</time>
      </trkpt>
      <trkpt lat="48.73374" lon="-0.60778">
        <ele>195</ele>
        <time>2013-10-06T08:11:40Z</time>
      </trkpt>
      <trkpt lat="48.7337" lon="-0.60782">
        <ele>195</ele>
        <time>2013-10-06T08:11:41Z</time>
      </trkpt>
      <trkpt lat="48.73354" lon="-0.60799">
        <ele>195</ele>
        <time>2013-10-06T08:11:45Z</time>
      </trkpt>
      <trkpt lat="48.7335" lon="-0.60803">
        <ele>194.8</ele>
        <time>2013-10-06T08:11:46Z</time>
      </trkpt>
      <trkpt lat="48.73346" lon="-0.60807">
        <ele>194.8</ele>
        <time>2013-10-06T08:11:47Z</time>
      </trkpt>
      <trkpt lat="48.73344" lon="-0.60811">
        <ele>194.8</ele>
        <time>2013-10-06T08:11:48Z</time>
      </trkpt>
      <trkpt lat="48.73342" lon="-0.60816">
        <ele>194.8</ele>
        <time>2013-10-06T08:11:49Z</time>
      </trkpt>
      <trkpt lat="48.73339" lon="-0.60822">
        <ele>194.8</ele>
        <time>2013-10-06T08:11:50Z</time>
      </trkpt>
      <trkpt lat="48.73338" lon="-0.60827">
        <ele>194.8</ele>
        <time>2013-10-06T08:11:51Z</time>
      </trkpt>
      <trkpt lat="48.73335" lon="-0.6084">
        <ele>194.8</ele>
        <time>2013-10-06T08:11:53Z</time>
      </trkpt>
      <trkpt lat="48.73335" lon="-0.60846">
        <ele>194.8</ele>
        <time>2013-10-06T08:11:54Z</time>
      </trkpt>
      <trkpt lat="48.73332" lon="-0.60852">
        <ele>194.8</ele>
        <time>2013-10-06T08:11:55Z</time>
      </trkpt>
      <trkpt lat="48.73328" lon="-0.60859">
        <ele>194.8</ele>
        <time>2013-10-06T08:11:56Z</time>
      </trkpt>
      <trkpt lat="48.73325" lon="-0.60864">
        <ele>194.8</ele>
        <time>2013-10-06T08:11:57Z</time>
      </trkpt>
      <trkpt lat="48.73323" lon="-0.60871">
        <ele>194.6</ele>
        <time>2013-10-06T08:11:58Z</time>
      </trkpt>
      <trkpt lat="48.7332" lon="-0.60877">
        <ele>194.6</ele>
        <time>2013-10-06T08:11:59Z</time>
      </trkpt>
      <trkpt lat="48.7331" lon="-0.60902">
        <ele>194.2</ele>
        <time>2013-10-06T08:12:03Z</time>
      </trkpt>
      <trkpt lat="48.73308" lon="-0.60915">
        <ele>194</ele>
        <time>2013-10-06T08:12:05Z</time>
      </trkpt>
      <trkpt lat="48.73311" lon="-0.60988">
        <ele>194</ele>
        <time>2013-10-06T08:12:17Z</time>
      </trkpt>
      <trkpt lat="48.73302" lon="-0.61039">
        <ele>193.8</ele>
        <time>2013-10-06T08:12:25Z</time>
      </trkpt>
      <trkpt lat="48.73288" lon="-0.611">
        <ele>193.4</ele>
        <time>2013-10-06T08:12:34Z</time>
      </trkpt>
      <trkpt lat="48.73286" lon="-0.61106">
        <ele>193.4</ele>
        <time>2013-10-06T08:12:35Z</time>
      </trkpt>
      <trkpt lat="48.73279" lon="-0.61126">
        <ele>193.4</ele>
        <time>2013-10-06T08:12:38Z</time>
      </trkpt>
      <trkpt lat="48.73274" lon="-0.61138">
        <ele>193.6</ele>
        <time>2013-10-06T08:12:40Z</time>
      </trkpt>
      <trkpt lat="48.73259" lon="-0.61165">
        <ele>193.8</ele>
        <time>2013-10-06T08:12:45Z</time>
      </trkpt>
      <trkpt lat="48.7324" lon="-0.61231">
        <ele>195</ele>
        <time>2013-10-06T08:12:58Z</time>
      </trkpt>
      <trkpt lat="48.73242" lon="-0.61233">
        <ele>195</ele>
        <time>2013-10-06T08:12:59Z</time>
      </trkpt>
      <trkpt lat="48.73246" lon="-0.61238">
        <ele>195.4</ele>
        <time>2013-10-06T08:13:02Z</time>
      </trkpt>
      <trkpt lat="48.73246" lon="-0.61242">
        <ele>195.4</ele>
        <time>2013-10-06T08:13:03Z</time>
      </trkpt>
      <trkpt lat="48.73247" lon="-0.61246">
        <ele>195.6</ele>
        <time>2013-10-06T08:13:04Z</time>
      </trkpt>
      <trkpt lat="48.73246" lon="-0.61249">
        <ele>195.6</ele>
        <time>2013-10-06T08:13:05Z</time>
      </trkpt>
      <trkpt lat="48.73245" lon="-0.61253">
        <ele>195.6</ele>
        <time>2013-10-06T08:13:06Z</time>
      </trkpt>
      <trkpt lat="48.73244" lon="-0.61257">
        <ele>195.6</ele>
        <time>2013-10-06T08:13:07Z</time>
      </trkpt>
      <trkpt lat="48.73228" lon="-0.61332">
        <ele>196.2</ele>
        <time>2013-10-06T08:13:21Z</time>
      </trkpt>
      <trkpt lat="48.73215" lon="-0.61397">
        <ele>196.2</ele>
        <time>2013-10-06T08:13:33Z</time>
      </trkpt>
      <trkpt lat="48.73213" lon="-0.61409">
        <ele>196.2</ele>
        <time>2013-10-06T08:13:35Z</time>
      </trkpt>
      <trkpt lat="48.73205" lon="-0.61454">
        <ele>196</ele>
        <time>2013-10-06T08:13:43Z</time>
      </trkpt>
      <trkpt lat="48.73197" lon="-0.61479">
        <ele>195.8</ele>
        <time>2013-10-06T08:13:48Z</time>
      </trkpt>
      <trkpt lat="48.7318" lon="-0.61549">
        <ele>195.8</ele>
        <time>2013-10-06T08:13:59Z</time>
      </trkpt>
      <trkpt lat="48.73178" lon="-0.6158">
        <ele>195.8</ele>
        <time>2013-10-06T08:14:06Z</time>
      </trkpt>
      <trkpt lat="48.73178" lon="-0.61641">
        <ele>195.8</ele>
        <time>2013-10-06T08:14:17Z</time>
      </trkpt>
      <trkpt lat="48.73144" lon="-0.61699">
        <ele>196</ele>
        <time>2013-10-06T08:14:29Z</time>
      </trkpt>
      <trkpt lat="48.73114" lon="-0.61718">
        <ele>196.4</ele>
        <time>2013-10-06T08:14:39Z</time>
      </trkpt>
      <trkpt lat="48.73107" lon="-0.61723">
        <ele>196.4</ele>
        <time>2013-10-06T08:14:42Z</time>
      </trkpt>
      <trkpt lat="48.731" lon="-0.61737">
        <ele>196.4</ele>
        <time>2013-10-06T08:14:46Z</time>
      </trkpt>
      <trkpt lat="48.73073" lon="-0.61758">
        <ele>195.6</ele>
        <time>2013-10-06T08:14:56Z</time>
      </trkpt>
      <trkpt lat="48.73047" lon="-0.61796">
        <ele>196.6</ele>
        <time>2013-10-06T08:15:09Z</time>
      </trkpt>
      <trkpt lat="48.73041" lon="-0.61804">
        <ele>197</ele>
        <time>2013-10-06T08:15:11Z</time>
      </trkpt>
      <trkpt lat="48.73017" lon="-0.61825">
        <ele>199</ele>
        <time>2013-10-06T08:15:17Z</time>
      </trkpt>
      <trkpt lat="48.7301" lon="-0.61844">
        <ele>199.8</ele>
        <time>2013-10-06T08:15:21Z</time>
      </trkpt>
      <trkpt lat="48.72997" lon="-0.61882">
        <ele>200.2</ele>
        <time>2013-10-06T08:15:27Z</time>
      </trkpt>
      <trkpt lat="48.7299" lon="-0.61902">
        <ele>200</ele>
        <time>2013-10-06T08:15:29Z</time>
      </trkpt>
      <trkpt lat="48.7299" lon="-0.61911">
        <ele>199.8</ele>
        <time>2013-10-06T08:15:30Z</time>
      </trkpt>
      <trkpt lat="48.72989" lon="-0.61928">
        <ele>199.4</ele>
        <time>2013-10-06T08:15:32Z</time>
      </trkpt>
      <trkpt lat="48.73022" lon="-0.6201">
        <ele>196.4</ele>
        <time>2013-10-06T08:15:43Z</time>
      </trkpt>
      <trkpt lat="48.73053" lon="-0.6206">
        <ele>197.8</ele>
        <time>2013-10-06T08:15:57Z</time>
      </trkpt>
      <trkpt lat="48.73075" lon="-0.6211">
        <ele>201</ele>
        <time>2013-10-06T08:16:09Z</time>
      </trkpt>
      <trkpt lat="48.73077" lon="-0.62161">
        <ele>203.4</ele>
        <time>2013-10-06T08:16:19Z</time>
      </trkpt>
      <trkpt lat="48.73074" lon="-0.62199">
        <ele>205.4</ele>
        <time>2013-10-06T08:16:26Z</time>
      </trkpt>
      <trkpt lat="48.73068" lon="-0.62229">
        <ele>206.8</ele>
        <time>2013-10-06T08:16:32Z</time>
      </trkpt>
      <trkpt lat="48.73057" lon="-0.62267">
        <ele>209.2</ele>
        <time>2013-10-06T08:16:42Z</time>
      </trkpt>
      <trkpt lat="48.73055" lon="-0.62271">
        <ele>209.4</ele>
        <time>2013-10-06T08:16:43Z</time>
      </trkpt>
      <trkpt lat="48.73054" lon="-0.62275">
        <ele>209.8</ele>
        <time>2013-10-06T08:16:44Z</time>
      </trkpt>
      <trkpt lat="48.73052" lon="-0.62278">
        <ele>210</ele>
        <time>2013-10-06T08:16:45Z</time>
      </trkpt>
      <trkpt lat="48.73049" lon="-0.62281">
        <ele>210.2</ele>
        <time>2013-10-06T08:16:46Z</time>
      </trkpt>
      <trkpt lat="48.73044" lon="-0.62284">
        <ele>210.4</ele>
        <time>2013-10-06T08:16:47Z</time>
      </trkpt>
      <trkpt lat="48.73041" lon="-0.62286">
        <ele>210.6</ele>
        <time>2013-10-06T08:16:48Z</time>
      </trkpt>
      <trkpt lat="48.73038" lon="-0.62288">
        <ele>210.8</ele>
        <time>2013-10-06T08:16:49Z</time>
      </trkpt>
      <trkpt lat="48.73036" lon="-0.6229">
        <ele>211.2</ele>
        <time>2013-10-06T08:16:50Z</time>
      </trkpt>
      <trkpt lat="48.73033" lon="-0.62292">
        <ele>211.4</ele>
        <time>2013-10-06T08:16:51Z</time>
      </trkpt>
      <trkpt lat="48.73031" lon="-0.62294">
        <ele>211.6</ele>
        <time>2013-10-06T08:16:52Z</time>
      </trkpt>
      <trkpt lat="48.73029" lon="-0.62296">
        <ele>211.8</ele>
        <time>2013-10-06T08:16:53Z</time>
      </trkpt>
      <trkpt lat="48.73026" lon="-0.62299">
        <ele>212</ele>
        <time>2013-10-06T08:16:54Z</time>
      </trkpt>
      <trkpt lat="48.73001" lon="-0.62339">
        <ele>214.6</ele>
        <time>2013-10-06T08:17:06Z</time>
      </trkpt>
      <trkpt lat="48.72977" lon="-0.62376">
        <ele>216.8</ele>
        <time>2013-10-06T08:17:19Z</time>
      </trkpt>
      <trkpt lat="48.72942" lon="-0.62421">
        <ele>217.8</ele>
        <time>2013-10-06T08:17:35Z</time>
      </trkpt>
      <trkpt lat="48.72907" lon="-0.62461">
        <ele>217.8</ele>
        <time>2013-10-06T08:17:50Z</time>
      </trkpt>
      <trkpt lat="48.72868" lon="-0.6251">
        <ele>217.6</ele>
        <time>2013-10-06T08:18:02Z</time>
      </trkpt>
      <trkpt lat="48.72858" lon="-0.62529">
        <ele>217.6</ele>
        <time>2013-10-06T08:18:07Z</time>
      </trkpt>
      <trkpt lat="48.72861" lon="-0.62532">
        <ele>217.6</ele>
        <time>2013-10-06T08:18:08Z</time>
      </trkpt>
      <trkpt lat="48.72867" lon="-0.62535">
        <ele>217.8</ele>
        <time>2013-10-06T08:18:10Z</time>
      </trkpt>
      <trkpt lat="48.72867" lon="-0.62538">
        <ele>217.8</ele>
        <time>2013-10-06T08:18:11Z</time>
      </trkpt>
      <trkpt lat="48.72867" lon="-0.62541">
        <ele>217.8</ele>
        <time>2013-10-06T08:18:12Z</time>
      </trkpt>
      <trkpt lat="48.72866" lon="-0.62545">
        <ele>217.8</ele>
        <time>2013-10-06T08:18:13Z</time>
      </trkpt>
      <trkpt lat="48.72864" lon="-0.62547">
        <ele>217.8</ele>
        <time>2013-10-06T08:18:14Z</time>
      </trkpt>
      <trkpt lat="48.72861" lon="-0.6255">
        <ele>217.8</ele>
        <time>2013-10-06T08:18:15Z</time>
      </trkpt>
      <trkpt lat="48.72858" lon="-0.62553">
        <ele>217.6</ele>
        <time>2013-10-06T08:18:16Z</time>
      </trkpt>
      <trkpt lat="48.72854" lon="-0.62556">
        <ele>217.6</ele>
        <time>2013-10-06T08:18:17Z</time>
      </trkpt>
      <trkpt lat="48.72798" lon="-0.62607">
        <ele>215.4</ele>
        <time>2013-10-06T08:18:28Z</time>
      </trkpt>
      <trkpt lat="48.72772" lon="-0.6263">
        <ele>213.8</ele>
        <time>2013-10-06T08:18:33Z</time>
      </trkpt>
      <trkpt lat="48.72769" lon="-0.62634">
        <ele>213.4</ele>
        <time>2013-10-06T08:18:34Z</time>
      </trkpt>
      <trkpt lat="48.72768" lon="-0.62639">
        <ele>213</ele>
        <time>2013-10-06T08:18:35Z</time>
      </trkpt>
      <trkpt lat="48.72766" lon="-0.62645">
        <ele>212.6</ele>
        <time>2013-10-06T08:18:36Z</time>
      </trkpt>
      <trkpt lat="48.72765" lon="-0.62652">
        <ele>212.2</ele>
        <time>2013-10-06T08:18:37Z</time>
      </trkpt>
      <trkpt lat="48.72766" lon="-0.62658">
        <ele>211.8</ele>
        <time>2013-10-06T08:18:38Z</time>
      </trkpt>
      <trkpt lat="48.72767" lon="-0.62664">
        <ele>211</ele>
        <time>2013-10-06T08:18:39Z</time>
      </trkpt>
      <trkpt lat="48.7277" lon="-0.62669">
        <ele>210.6</ele>
        <time>2013-10-06T08:18:40Z</time>
      </trkpt>
      <trkpt lat="48.72771" lon="-0.62673">
        <ele>210.4</ele>
        <time>2013-10-06T08:18:41Z</time>
      </trkpt>
      <trkpt lat="48.72782" lon="-0.62734">
        <ele>211.6</ele>
        <time>2013-10-06T08:18:55Z</time>
      </trkpt>
      <trkpt lat="48.72789" lon="-0.62804">
        <ele>214.6</ele>
        <time>2013-10-06T08:19:10Z</time>
      </trkpt>
      <trkpt lat="48.72802" lon="-0.6287">
        <ele>217.6</ele>
        <time>2013-10-06T08:19:25Z</time>
      </trkpt>
      <trkpt lat="48.72808" lon="-0.62917">
        <ele>220.6</ele>
        <time>2013-10-06T08:19:37Z</time>
      </trkpt>
      <trkpt lat="48.72816" lon="-0.62959">
        <ele>223.8</ele>
        <time>2013-10-06T08:19:50Z</time>
      </trkpt>
      <trkpt lat="48.72823" lon="-0.62999">
        <ele>227</ele>
        <time>2013-10-06T08:20:02Z</time>
      </trkpt>
      <trkpt lat="48.72832" lon="-0.63045">
        <ele>230.2</ele>
        <time>2013-10-06T08:20:16Z</time>
      </trkpt>
      <trkpt lat="48.72838" lon="-0.63087">
        <ele>232.8</ele>
        <time>2013-10-06T08:20:29Z</time>
      </trkpt>
      <trkpt lat="48.72842" lon="-0.63125">
        <ele>234.2</ele>
        <time>2013-10-06T08:20:41Z</time>
      </trkpt>
      <trkpt lat="48.72851" lon="-0.6318">
        <ele>235.6</ele>
        <time>2013-10-06T08:20:55Z</time>
      </trkpt>
      <trkpt lat="48.72854" lon="-0.63231">
        <ele>237</ele>
        <time>2013-10-06T08:21:07Z</time>
      </trkpt>
      <trkpt lat="48.72862" lon="-0.63304">
        <ele>238.4</ele>
        <time>2013-10-06T08:21:23Z</time>
      </trkpt>
      <trkpt lat="48.72863" lon="-0.63339">
        <ele>238.8</ele>
        <time>2013-10-06T08:21:34Z</time>
      </trkpt>
      <trkpt lat="48.72864" lon="-0.6334">
        <ele>239</ele>
        <time>2013-10-06T08:21:36Z</time>
      </trkpt>
      <trkpt lat="48.72862" lon="-0.63353">
        <ele>239.4</ele>
        <time>2013-10-06T08:23:18Z</time>
      </trkpt>
      <trkpt lat="48.72861" lon="-0.63356">
        <ele>239.4</ele>
        <time>2013-10-06T08:23:19Z</time>
      </trkpt>
      <trkpt lat="48.72852" lon="-0.63404">
        <ele>240.2</ele>
        <time>2013-10-06T08:23:32Z</time>
      </trkpt>
      <trkpt lat="48.72851" lon="-0.63458">
        <ele>241.2</ele>
        <time>2013-10-06T08:23:46Z</time>
      </trkpt>
      <trkpt lat="48.72843" lon="-0.63498">
        <ele>243.2</ele>
        <time>2013-10-06T08:23:57Z</time>
      </trkpt>
      <trkpt lat="48.72847" lon="-0.63538">
        <ele>245.2</ele>
        <time>2013-10-06T08:24:10Z</time>
      </trkpt>
      <trkpt lat="48.7286" lon="-0.6359">
        <ele>247.6</ele>
        <time>2013-10-06T08:24:22Z</time>
      </trkpt>
      <trkpt lat="48.72867" lon="-0.63637">
        <ele>250.2</ele>
        <time>2013-10-06T08:24:36Z</time>
      </trkpt>
      <trkpt lat="48.72867" lon="-0.6369">
        <ele>252.4</ele>
        <time>2013-10-06T08:24:48Z</time>
      </trkpt>
      <trkpt lat="48.72861" lon="-0.63739">
        <ele>253.2</ele>
        <time>2013-10-06T08:25:01Z</time>
      </trkpt>
      <trkpt lat="48.72855" lon="-0.63783">
        <ele>252.8</ele>
        <time>2013-10-06T08:25:13Z</time>
      </trkpt>
      <trkpt lat="48.72847" lon="-0.63844">
        <ele>250.6</ele>
        <time>2013-10-06T08:25:25Z</time>
      </trkpt>
      <trkpt lat="48.72847" lon="-0.63848">
        <ele>250.2</ele>
        <time>2013-10-06T08:25:26Z</time>
      </trkpt>
      <trkpt lat="48.72862" lon="-0.63914">
        <ele>247.8</ele>
        <time>2013-10-06T08:25:39Z</time>
      </trkpt>
      <trkpt lat="48.72869" lon="-0.63962">
        <ele>248</ele>
        <time>2013-10-06T08:25:50Z</time>
      </trkpt>
      <trkpt lat="48.72864" lon="-0.64007">
        <ele>249.8</ele>
        <time>2013-10-06T08:26:03Z</time>
      </trkpt>
      <trkpt lat="48.7286" lon="-0.64045">
        <ele>251.8</ele>
        <time>2013-10-06T08:26:14Z</time>
      </trkpt>
      <trkpt lat="48.72855" lon="-0.64072">
        <ele>253.4</ele>
        <time>2013-10-06T08:26:20Z</time>
      </trkpt>
      <trkpt lat="48.72851" lon="-0.64097">
        <ele>254</ele>
        <time>2013-10-06T08:26:26Z</time>
      </trkpt>
      <trkpt lat="48.72848" lon="-0.64121">
        <ele>254.8</ele>
        <time>2013-10-06T08:26:33Z</time>
      </trkpt>
      <trkpt lat="48.72848" lon="-0.64145">
        <ele>256.2</ele>
        <time>2013-10-06T08:26:42Z</time>
      </trkpt>
      <trkpt lat="48.72851" lon="-0.64155">
        <ele>257.4</ele>
        <time>2013-10-06T08:26:46Z</time>
      </trkpt>
      <trkpt lat="48.72851" lon="-0.642">
        <ele>259</ele>
        <time>2013-10-06T08:26:57Z</time>
      </trkpt>
      <trkpt lat="48.72852" lon="-0.64234">
        <ele>259.6</ele>
        <time>2013-10-06T08:27:05Z</time>
      </trkpt>
      <trkpt lat="48.72843" lon="-0.643">
        <ele>259.2</ele>
        <time>2013-10-06T08:27:17Z</time>
      </trkpt>
      <trkpt lat="48.72854" lon="-0.64368">
        <ele>260.4</ele>
        <time>2013-10-06T08:27:31Z</time>
      </trkpt>
      <trkpt lat="48.72863" lon="-0.64428">
        <ele>260.2</ele>
        <time>2013-10-06T08:27:44Z</time>
      </trkpt>
      <trkpt lat="48.72881" lon="-0.6451">
        <ele>259.4</ele>
        <time>2013-10-06T08:28:00Z</time>
      </trkpt>
      <trkpt lat="48.72894" lon="-0.64566">
        <ele>257.6</ele>
        <time>2013-10-06T08:28:13Z</time>
      </trkpt>
      <trkpt lat="48.72904" lon="-0.64617">
        <ele>256.6</ele>
        <time>2013-10-06T08:28:23Z</time>
      </trkpt>
      <trkpt lat="48.72914" lon="-0.64674">
        <ele>254.2</ele>
        <time>2013-10-06T08:28:34Z</time>
      </trkpt>
      <trkpt lat="48.72913" lon="-0.64689">
        <ele>253.8</ele>
        <time>2013-10-06T08:28:36Z</time>
      </trkpt>
      <trkpt lat="48.72898" lon="-0.64717">
        <ele>253</ele>
        <time>2013-10-06T08:28:41Z</time>
      </trkpt>
      <trkpt lat="48.72871" lon="-0.64766">
        <ele>249.6</ele>
        <time>2013-10-06T08:28:53Z</time>
      </trkpt>
      <trkpt lat="48.7286" lon="-0.64779">
        <ele>249.4</ele>
        <time>2013-10-06T08:28:57Z</time>
      </trkpt>
      <trkpt lat="48.7285" lon="-0.648">
        <ele>249.6</ele>
        <time>2013-10-06T08:29:03Z</time>
      </trkpt>
      <trkpt lat="48.72857" lon="-0.64818">
        <ele>251</ele>
        <time>2013-10-06T08:29:08Z</time>
      </trkpt>
      <trkpt lat="48.72869" lon="-0.64863">
        <ele>254</ele>
        <time>2013-10-06T08:29:21Z</time>
      </trkpt>
      <trkpt lat="48.72874" lon="-0.64946">
        <ele>255.4</ele>
        <time>2013-10-06T08:29:36Z</time>
      </trkpt>
      <trkpt lat="48.72876" lon="-0.65001">
        <ele>256.8</ele>
        <time>2013-10-06T08:29:49Z</time>
      </trkpt>
      <trkpt lat="48.72863" lon="-0.65053">
        <ele>259</ele>
        <time>2013-10-06T08:30:01Z</time>
      </trkpt>
      <trkpt lat="48.72845" lon="-0.65094">
        <ele>261.6</ele>
        <time>2013-10-06T08:30:16Z</time>
      </trkpt>
      <trkpt lat="48.72825" lon="-0.65143">
        <ele>263.8</ele>
        <time>2013-10-06T08:30:30Z</time>
      </trkpt>
      <trkpt lat="48.72804" lon="-0.65203">
        <ele>264.4</ele>
        <time>2013-10-06T08:30:44Z</time>
      </trkpt>
      <trkpt lat="48.72809" lon="-0.65277">
        <ele>264.6</ele>
        <time>2013-10-06T08:30:57Z</time>
      </trkpt>
      <trkpt lat="48.72814" lon="-0.65318">
        <ele>264.6</ele>
        <time>2013-10-06T08:31:03Z</time>
      </trkpt>
      <trkpt lat="48.72814" lon="-0.65325">
        <ele>264.4</ele>
        <time>2013-10-06T08:31:04Z</time>
      </trkpt>
      <trkpt lat="48.72814" lon="-0.65332">
        <ele>264.4</ele>
        <time>2013-10-06T08:31:05Z</time>
      </trkpt>
      <trkpt lat="48.72813" lon="-0.65339">
        <ele>264.4</ele>
        <time>2013-10-06T08:31:06Z</time>
      </trkpt>
      <trkpt lat="48.72812" lon="-0.65346">
        <ele>264.4</ele>
        <time>2013-10-06T08:31:07Z</time>
      </trkpt>
      <trkpt lat="48.728" lon="-0.65465">
        <ele>263.4</ele>
        <time>2013-10-06T08:31:23Z</time>
      </trkpt>
      <trkpt lat="48.72794" lon="-0.65532">
        <ele>264</ele>
        <time>2013-10-06T08:31:34Z</time>
      </trkpt>
      <trkpt lat="48.72793" lon="-0.65538">
        <ele>264.2</ele>
        <time>2013-10-06T08:31:35Z</time>
      </trkpt>
      <trkpt lat="48.72791" lon="-0.65543">
        <ele>264.4</ele>
        <time>2013-10-06T08:31:36Z</time>
      </trkpt>
      <trkpt lat="48.72783" lon="-0.65638">
        <ele>265.8</ele>
        <time>2013-10-06T08:31:51Z</time>
      </trkpt>
      <trkpt lat="48.72783" lon="-0.65644">
        <ele>265.8</ele>
        <time>2013-10-06T08:31:52Z</time>
      </trkpt>
      <trkpt lat="48.72791" lon="-0.65761">
        <ele>265.4</ele>
        <time>2013-10-06T08:32:08Z</time>
      </trkpt>
      <trkpt lat="48.72799" lon="-0.65797">
        <ele>265</ele>
        <time>2013-10-06T08:32:14Z</time>
      </trkpt>
      <trkpt lat="48.72797" lon="-0.658">
        <ele>265</ele>
        <time>2013-10-06T08:32:15Z</time>
      </trkpt>
      <trkpt lat="48.72794" lon="-0.65802">
        <ele>265</ele>
        <time>2013-10-06T08:32:16Z</time>
      </trkpt>
      <trkpt lat="48.72791" lon="-0.65802">
        <ele>264.8</ele>
        <time>2013-10-06T08:32:17Z</time>
      </trkpt>
      <trkpt lat="48.72788" lon="-0.65801">
        <ele>264.8</ele>
        <time>2013-10-06T08:32:18Z</time>
      </trkpt>
      <trkpt lat="48.72785" lon="-0.65799">
        <ele>264.8</ele>
        <time>2013-10-06T08:32:19Z</time>
      </trkpt>
      <trkpt lat="48.72741" lon="-0.65781">
        <ele>265.2</ele>
        <time>2013-10-06T08:32:33Z</time>
      </trkpt>
      <trkpt lat="48.72705" lon="-0.65768">
        <ele>266.6</ele>
        <time>2013-10-06T08:32:45Z</time>
      </trkpt>
      <trkpt lat="48.72654" lon="-0.65746">
        <ele>267.8</ele>
        <time>2013-10-06T08:32:58Z</time>
      </trkpt>
      <trkpt lat="48.72607" lon="-0.65732">
        <ele>269.4</ele>
        <time>2013-10-06T08:33:10Z</time>
      </trkpt>
      <trkpt lat="48.72559" lon="-0.65712">
        <ele>269.2</ele>
        <time>2013-10-06T08:33:23Z</time>
      </trkpt>
      <trkpt lat="48.72514" lon="-0.657">
        <ele>269.4</ele>
        <time>2013-10-06T08:33:34Z</time>
      </trkpt>
      <trkpt lat="48.72488" lon="-0.65722">
        <ele>270.2</ele>
        <time>2013-10-06T08:33:44Z</time>
      </trkpt>
      <trkpt lat="48.72463" lon="-0.65771">
        <ele>271.2</ele>
        <time>2013-10-06T08:33:56Z</time>
      </trkpt>
      <trkpt lat="48.72438" lon="-0.65838">
        <ele>272.4</ele>
        <time>2013-10-06T08:34:09Z</time>
      </trkpt>
      <trkpt lat="48.72422" lon="-0.65888">
        <ele>274.4</ele>
        <time>2013-10-06T08:34:21Z</time>
      </trkpt>
      <trkpt lat="48.72402" lon="-0.65945">
        <ele>277.6</ele>
        <time>2013-10-06T08:34:33Z</time>
      </trkpt>
      <trkpt lat="48.72376" lon="-0.65978">
        <ele>281</ele>
        <time>2013-10-06T08:34:40Z</time>
      </trkpt>
      <trkpt lat="48.72345" lon="-0.66005">
        <ele>284</ele>
        <time>2013-10-06T08:34:50Z</time>
      </trkpt>
      <trkpt lat="48.7232" lon="-0.66027">
        <ele>285</ele>
        <time>2013-10-06T08:35:02Z</time>
      </trkpt>
      <trkpt lat="48.72315" lon="-0.66036">
        <ele>285</ele>
        <time>2013-10-06T08:35:15Z</time>
      </trkpt>
      <trkpt lat="48.7231" lon="-0.66032">
        <ele>284</ele>
        <time>2013-10-06T08:44:06Z</time>
      </trkpt>
      <trkpt lat="48.72302" lon="-0.66038">
        <ele>283.8</ele>
        <time>2013-10-06T08:44:09Z</time>
      </trkpt>
      <trkpt lat="48.72278" lon="-0.66064">
        <ele>283</ele>
        <time>2013-10-06T08:44:16Z</time>
      </trkpt>
      <trkpt lat="48.72261" lon="-0.66086">
        <ele>281.6</ele>
        <time>2013-10-06T08:44:21Z</time>
      </trkpt>
      <trkpt lat="48.72216" lon="-0.66146">
        <ele>278.2</ele>
        <time>2013-10-06T08:44:34Z</time>
      </trkpt>
      <trkpt lat="48.72185" lon="-0.66176">
        <ele>275.2</ele>
        <time>2013-10-06T08:44:45Z</time>
      </trkpt>
      <trkpt lat="48.7214" lon="-0.66171">
        <ele>273</ele>
        <time>2013-10-06T08:44:56Z</time>
      </trkpt>
      <trkpt lat="48.72117" lon="-0.66184">
        <ele>274.8</ele>
        <time>2013-10-06T08:45:05Z</time>
      </trkpt>
      <trkpt lat="48.72116" lon="-0.66186">
        <ele>275</ele>
        <time>2013-10-06T08:45:06Z</time>
      </trkpt>
      <trkpt lat="48.72116" lon="-0.6619">
        <ele>275.2</ele>
        <time>2013-10-06T08:45:07Z</time>
      </trkpt>
      <trkpt lat="48.72119" lon="-0.66253">
        <ele>277.6</ele>
        <time>2013-10-06T08:45:23Z</time>
      </trkpt>
      <trkpt lat="48.7213" lon="-0.66318">
        <ele>278.2</ele>
        <time>2013-10-06T08:45:38Z</time>
      </trkpt>
      <trkpt lat="48.72129" lon="-0.66323">
        <ele>278.2</ele>
        <time>2013-10-06T08:45:39Z</time>
      </trkpt>
      <trkpt lat="48.72127" lon="-0.66325">
        <ele>278.2</ele>
        <time>2013-10-06T08:45:40Z</time>
      </trkpt>
      <trkpt lat="48.72124" lon="-0.66325">
        <ele>278.4</ele>
        <time>2013-10-06T08:45:41Z</time>
      </trkpt>
      <trkpt lat="48.72121" lon="-0.66324">
        <ele>278.4</ele>
        <time>2013-10-06T08:45:42Z</time>
      </trkpt>
      <trkpt lat="48.72118" lon="-0.66323">
        <ele>278.4</ele>
        <time>2013-10-06T08:45:43Z</time>
      </trkpt>
      <trkpt lat="48.72098" lon="-0.66329">
        <ele>280</ele>
        <time>2013-10-06T08:45:52Z</time>
      </trkpt>
      <trkpt lat="48.72087" lon="-0.66377">
        <ele>283</ele>
        <time>2013-10-06T08:46:05Z</time>
      </trkpt>
      <trkpt lat="48.72066" lon="-0.66425">
        <ele>284.8</ele>
        <time>2013-10-06T08:46:18Z</time>
      </trkpt>
      <trkpt lat="48.72048" lon="-0.66458">
        <ele>286.4</ele>
        <time>2013-10-06T08:46:31Z</time>
      </trkpt>
      <trkpt lat="48.72033" lon="-0.66478">
        <ele>287.6</ele>
        <time>2013-10-06T08:46:40Z</time>
      </trkpt>
      <trkpt lat="48.7203" lon="-0.66483">
        <ele>287.8</ele>
        <time>2013-10-06T08:46:41Z</time>
      </trkpt>
      <trkpt lat="48.72024" lon="-0.66491">
        <ele>288.2</ele>
        <time>2013-10-06T08:46:43Z</time>
      </trkpt>
      <trkpt lat="48.71995" lon="-0.66518">
        <ele>289.8</ele>
        <time>2013-10-06T08:46:56Z</time>
      </trkpt>
      <trkpt lat="48.71967" lon="-0.6655">
        <ele>290</ele>
        <time>2013-10-06T08:47:05Z</time>
      </trkpt>
      <trkpt lat="48.71963" lon="-0.66555">
        <ele>289.8</ele>
        <time>2013-10-06T08:47:06Z</time>
      </trkpt>
      <trkpt lat="48.71948" lon="-0.66582">
        <ele>288.6</ele>
        <time>2013-10-06T08:47:11Z</time>
      </trkpt>
      <trkpt lat="48.71917" lon="-0.66652">
        <ele>285.4</ele>
        <time>2013-10-06T08:47:19Z</time>
      </trkpt>
      <trkpt lat="48.7191" lon="-0.66669">
        <ele>283.8</ele>
        <time>2013-10-06T08:47:21Z</time>
      </trkpt>
      <trkpt lat="48.7188" lon="-0.66746">
        <ele>280.6</ele>
        <time>2013-10-06T08:47:30Z</time>
      </trkpt>
      <trkpt lat="48.71855" lon="-0.66807">
        <ele>277.4</ele>
        <time>2013-10-06T08:47:37Z</time>
      </trkpt>
      <trkpt lat="48.71829" lon="-0.66854">
        <ele>274.4</ele>
        <time>2013-10-06T08:47:47Z</time>
      </trkpt>
      <trkpt lat="48.71817" lon="-0.66888">
        <ele>273.2</ele>
        <time>2013-10-06T08:47:54Z</time>
      </trkpt>
      <trkpt lat="48.71815" lon="-0.66896">
        <ele>273</ele>
        <time>2013-10-06T08:47:55Z</time>
      </trkpt>
      <trkpt lat="48.71809" lon="-0.6692">
        <ele>272.2</ele>
        <time>2013-10-06T08:47:58Z</time>
      </trkpt>
      <trkpt lat="48.71807" lon="-0.66929">
        <ele>272</ele>
        <time>2013-10-06T08:47:59Z</time>
      </trkpt>
      <trkpt lat="48.71798" lon="-0.66954">
        <ele>271</ele>
        <time>2013-10-06T08:48:02Z</time>
      </trkpt>
      <trkpt lat="48.71794" lon="-0.66962">
        <ele>270.6</ele>
        <time>2013-10-06T08:48:03Z</time>
      </trkpt>
      <trkpt lat="48.71789" lon="-0.6697">
        <ele>270.4</ele>
        <time>2013-10-06T08:48:04Z</time>
      </trkpt>
      <trkpt lat="48.71783" lon="-0.66977">
        <ele>270</ele>
        <time>2013-10-06T08:48:05Z</time>
      </trkpt>
      <trkpt lat="48.71776" lon="-0.66984">
        <ele>269.6</ele>
        <time>2013-10-06T08:48:06Z</time>
      </trkpt>
      <trkpt lat="48.7177" lon="-0.66992">
        <ele>269.2</ele>
        <time>2013-10-06T08:48:07Z</time>
      </trkpt>
      <trkpt lat="48.71765" lon="-0.67002">
        <ele>268.8</ele>
        <time>2013-10-06T08:48:08Z</time>
      </trkpt>
      <trkpt lat="48.7176" lon="-0.67013">
        <ele>268.2</ele>
        <time>2013-10-06T08:48:09Z</time>
      </trkpt>
      <trkpt lat="48.71757" lon="-0.67024">
        <ele>267.8</ele>
        <time>2013-10-06T08:48:10Z</time>
      </trkpt>
      <trkpt lat="48.71754" lon="-0.67036">
        <ele>266.8</ele>
        <time>2013-10-06T08:48:11Z</time>
      </trkpt>
      <trkpt lat="48.71752" lon="-0.67045">
        <ele>266.2</ele>
        <time>2013-10-06T08:48:12Z</time>
      </trkpt>
      <trkpt lat="48.71742" lon="-0.6708">
        <ele>265.4</ele>
        <time>2013-10-06T08:48:16Z</time>
      </trkpt>
      <trkpt lat="48.71717" lon="-0.6713">
        <ele>267.4</ele>
        <time>2013-10-06T08:48:29Z</time>
      </trkpt>
      <trkpt lat="48.71706" lon="-0.67167">
        <ele>270.4</ele>
        <time>2013-10-06T08:48:41Z</time>
      </trkpt>
      <trkpt lat="48.71704" lon="-0.67168">
        <ele>270.6</ele>
        <time>2013-10-06T08:48:42Z</time>
      </trkpt>
      <trkpt lat="48.71702" lon="-0.67168">
        <ele>270.8</ele>
        <time>2013-10-06T08:48:43Z</time>
      </trkpt>
      <trkpt lat="48.71699" lon="-0.67167">
        <ele>270.8</ele>
        <time>2013-10-06T08:48:44Z</time>
      </trkpt>
      <trkpt lat="48.71697" lon="-0.67165">
        <ele>271</ele>
        <time>2013-10-06T08:48:45Z</time>
      </trkpt>
      <trkpt lat="48.71695" lon="-0.67163">
        <ele>271</ele>
        <time>2013-10-06T08:48:46Z</time>
      </trkpt>
      <trkpt lat="48.71692" lon="-0.67161">
        <ele>271.2</ele>
        <time>2013-10-06T08:48:47Z</time>
      </trkpt>
      <trkpt lat="48.7169" lon="-0.67159">
        <ele>271.2</ele>
        <time>2013-10-06T08:48:48Z</time>
      </trkpt>
      <trkpt lat="48.71688" lon="-0.67157">
        <ele>271.2</ele>
        <time>2013-10-06T08:48:49Z</time>
      </trkpt>
      <trkpt lat="48.71682" lon="-0.67152">
        <ele>271.4</ele>
        <time>2013-10-06T08:48:51Z</time>
      </trkpt>
      <trkpt lat="48.71653" lon="-0.67127">
        <ele>270.6</ele>
        <time>2013-10-06T08:49:01Z</time>
      </trkpt>
      <trkpt lat="48.71607" lon="-0.67087">
        <ele>269.4</ele>
        <time>2013-10-06T08:49:18Z</time>
      </trkpt>
      <trkpt lat="48.71584" lon="-0.67067">
        <ele>268.6</ele>
        <time>2013-10-06T08:49:28Z</time>
      </trkpt>
      <trkpt lat="48.71582" lon="-0.67067">
        <ele>268.6</ele>
        <time>2013-10-06T08:49:29Z</time>
      </trkpt>
      <trkpt lat="48.7158" lon="-0.67069">
        <ele>268.6</ele>
        <time>2013-10-06T08:49:30Z</time>
      </trkpt>
      <trkpt lat="48.71577" lon="-0.6709">
        <ele>268.4</ele>
        <time>2013-10-06T08:49:37Z</time>
      </trkpt>
      <trkpt lat="48.71573" lon="-0.6713">
        <ele>269.4</ele>
        <time>2013-10-06T08:49:49Z</time>
      </trkpt>
      <trkpt lat="48.71573" lon="-0.67133">
        <ele>269.4</ele>
        <time>2013-10-06T08:49:50Z</time>
      </trkpt>
      <trkpt lat="48.7157" lon="-0.67163">
        <ele>270.4</ele>
        <time>2013-10-06T08:49:57Z</time>
      </trkpt>
      <trkpt lat="48.7157" lon="-0.6718">
        <ele>270.8</ele>
        <time>2013-10-06T08:50:00Z</time>
      </trkpt>
      <trkpt lat="48.71569" lon="-0.67195">
        <ele>271.4</ele>
        <time>2013-10-06T08:50:04Z</time>
      </trkpt>
      <trkpt lat="48.71566" lon="-0.67252">
        <ele>273</ele>
        <time>2013-10-06T08:50:17Z</time>
      </trkpt>
      <trkpt lat="48.7156" lon="-0.67284">
        <ele>273.6</ele>
        <time>2013-10-06T08:50:27Z</time>
      </trkpt>
      <trkpt lat="48.7155" lon="-0.67342">
        <ele>274.2</ele>
        <time>2013-10-06T08:50:38Z</time>
      </trkpt>
      <trkpt lat="48.7154" lon="-0.67382">
        <ele>275.6</ele>
        <time>2013-10-06T08:50:48Z</time>
      </trkpt>
      <trkpt lat="48.7154" lon="-0.67392">
        <ele>275.8</ele>
        <time>2013-10-06T08:50:51Z</time>
      </trkpt>
      <trkpt lat="48.71534" lon="-0.67409">
        <ele>276.2</ele>
        <time>2013-10-06T08:50:55Z</time>
      </trkpt>
      <trkpt lat="48.71526" lon="-0.67454">
        <ele>277.4</ele>
        <time>2013-10-06T08:51:08Z</time>
      </trkpt>
      <trkpt lat="48.71513" lon="-0.67508">
        <ele>278.6</ele>
        <time>2013-10-06T08:51:19Z</time>
      </trkpt>
      <trkpt lat="48.71503" lon="-0.67557">
        <ele>280.2</ele>
        <time>2013-10-06T08:51:31Z</time>
      </trkpt>
      <trkpt lat="48.7149" lon="-0.67598">
        <ele>281.4</ele>
        <time>2013-10-06T08:51:42Z</time>
      </trkpt>
      <trkpt lat="48.71475" lon="-0.67655">
        <ele>282.2</ele>
        <time>2013-10-06T08:51:54Z</time>
      </trkpt>
      <trkpt lat="48.71455" lon="-0.67719">
        <ele>281</ele>
        <time>2013-10-06T08:52:06Z</time>
      </trkpt>
      <trkpt lat="48.71438" lon="-0.6779">
        <ele>278.6</ele>
        <time>2013-10-06T08:52:20Z</time>
      </trkpt>
      <trkpt lat="48.714" lon="-0.6786">
        <ele>275.6</ele>
        <time>2013-10-06T08:52:34Z</time>
      </trkpt>
      <trkpt lat="48.71368" lon="-0.67894">
        <ele>275.4</ele>
        <time>2013-10-06T08:52:45Z</time>
      </trkpt>
      <trkpt lat="48.71335" lon="-0.67938">
        <ele>276.6</ele>
        <time>2013-10-06T08:52:57Z</time>
      </trkpt>
      <trkpt lat="48.71329" lon="-0.6795">
        <ele>276.8</ele>
        <time>2013-10-06T08:53:01Z</time>
      </trkpt>
      <trkpt lat="48.71317" lon="-0.67941">
        <ele>277.4</ele>
        <time>2013-10-06T08:53:06Z</time>
      </trkpt>
      <trkpt lat="48.71283" lon="-0.67895">
        <ele>279</ele>
        <time>2013-10-06T08:53:21Z</time>
      </trkpt>
      <trkpt lat="48.71246" lon="-0.67825">
        <ele>278.8</ele>
        <time>2013-10-06T08:53:37Z</time>
      </trkpt>
      <trkpt lat="48.71188" lon="-0.67722">
        <ele>276.4</ele>
        <time>2013-10-06T08:53:56Z</time>
      </trkpt>
      <trkpt lat="48.71145" lon="-0.67625">
        <ele>274</ele>
        <time>2013-10-06T08:54:11Z</time>
      </trkpt>
      <trkpt lat="48.71131" lon="-0.67584">
        <ele>273.4</ele>
        <time>2013-10-06T08:54:17Z</time>
      </trkpt>
      <trkpt lat="48.71122" lon="-0.67551">
        <ele>273.6</ele>
        <time>2013-10-06T08:54:22Z</time>
      </trkpt>
      <trkpt lat="48.71074" lon="-0.6748">
        <ele>275.6</ele>
        <time>2013-10-06T08:54:39Z</time>
      </trkpt>
      <trkpt lat="48.71033" lon="-0.67411">
        <ele>278.4</ele>
        <time>2013-10-06T08:54:57Z</time>
      </trkpt>
      <trkpt lat="48.71004" lon="-0.67343">
        <ele>279</ele>
        <time>2013-10-06T08:55:12Z</time>
      </trkpt>
      <trkpt lat="48.70981" lon="-0.673">
        <ele>278.8</ele>
        <time>2013-10-06T08:55:21Z</time>
      </trkpt>
      <trkpt lat="48.70964" lon="-0.67266">
        <ele>278.6</ele>
        <time>2013-10-06T08:55:27Z</time>
      </trkpt>
      <trkpt lat="48.70957" lon="-0.67256">
        <ele>278.6</ele>
        <time>2013-10-06T08:55:29Z</time>
      </trkpt>
      <trkpt lat="48.70914" lon="-0.67212">
        <ele>278.2</ele>
        <time>2013-10-06T08:55:43Z</time>
      </trkpt>
      <trkpt lat="48.70907" lon="-0.67208">
        <ele>278</ele>
        <time>2013-10-06T08:55:46Z</time>
      </trkpt>
      <trkpt lat="48.70906" lon="-0.67205">
        <ele>278</ele>
        <time>2013-10-06T08:55:47Z</time>
      </trkpt>
      <trkpt lat="48.70905" lon="-0.67201">
        <ele>277.8</ele>
        <time>2013-10-06T08:55:48Z</time>
      </trkpt>
      <trkpt lat="48.70903" lon="-0.67193">
        <ele>277.8</ele>
        <time>2013-10-06T08:55:50Z</time>
      </trkpt>
      <trkpt lat="48.70887" lon="-0.67153">
        <ele>277.4</ele>
        <time>2013-10-06T08:56:03Z</time>
      </trkpt>
      <trkpt lat="48.70871" lon="-0.67104">
        <ele>278</ele>
        <time>2013-10-06T08:56:15Z</time>
      </trkpt>
      <trkpt lat="48.70858" lon="-0.67019">
        <ele>279.6</ele>
        <time>2013-10-06T08:56:30Z</time>
      </trkpt>
      <trkpt lat="48.70856" lon="-0.67009">
        <ele>279.8</ele>
        <time>2013-10-06T08:56:32Z</time>
      </trkpt>
      <trkpt lat="48.70854" lon="-0.67006">
        <ele>280.2</ele>
        <time>2013-10-06T08:56:33Z</time>
      </trkpt>
      <trkpt lat="48.70851" lon="-0.67005">
        <ele>280.2</ele>
        <time>2013-10-06T08:56:34Z</time>
      </trkpt>
      <trkpt lat="48.708" lon="-0.66959">
        <ele>281.8</ele>
        <time>2013-10-06T08:56:50Z</time>
      </trkpt>
      <trkpt lat="48.70769" lon="-0.6691">
        <ele>283.2</ele>
        <time>2013-10-06T08:57:03Z</time>
      </trkpt>
      <trkpt lat="48.70754" lon="-0.66901">
        <ele>284.4</ele>
        <time>2013-10-06T08:57:09Z</time>
      </trkpt>
      <trkpt lat="48.70745" lon="-0.66909">
        <ele>285.6</ele>
        <time>2013-10-06T08:57:15Z</time>
      </trkpt>
      <trkpt lat="48.70737" lon="-0.6691">
        <ele>286.2</ele>
        <time>2013-10-06T08:57:19Z</time>
      </trkpt>
      <trkpt lat="48.70726" lon="-0.66898">
        <ele>286.4</ele>
        <time>2013-10-06T08:57:26Z</time>
      </trkpt>
      <trkpt lat="48.70698" lon="-0.66881">
        <ele>285.4</ele>
        <time>2013-10-06T08:57:38Z</time>
      </trkpt>
      <trkpt lat="48.70689" lon="-0.66877">
        <ele>284.8</ele>
        <time>2013-10-06T08:57:42Z</time>
      </trkpt>
      <trkpt lat="48.70681" lon="-0.66869">
        <ele>284.6</ele>
        <time>2013-10-06T08:57:46Z</time>
      </trkpt>
      <trkpt lat="48.70662" lon="-0.66821">
        <ele>285.4</ele>
        <time>2013-10-06T08:58:00Z</time>
      </trkpt>
      <trkpt lat="48.70649" lon="-0.66793">
        <ele>285.4</ele>
        <time>2013-10-06T08:58:09Z</time>
      </trkpt>
      <trkpt lat="48.70626" lon="-0.66755">
        <ele>286</ele>
        <time>2013-10-06T08:58:22Z</time>
      </trkpt>
      <trkpt lat="48.70585" lon="-0.66704">
        <ele>285.2</ele>
        <time>2013-10-06T08:58:36Z</time>
      </trkpt>
      <trkpt lat="48.70546" lon="-0.66642">
        <ele>283.2</ele>
        <time>2013-10-06T08:58:49Z</time>
      </trkpt>
      <trkpt lat="48.70523" lon="-0.66583">
        <ele>281.8</ele>
        <time>2013-10-06T08:59:01Z</time>
      </trkpt>
      <trkpt lat="48.70501" lon="-0.66521">
        <ele>281.4</ele>
        <time>2013-10-06T08:59:12Z</time>
      </trkpt>
      <trkpt lat="48.70468" lon="-0.66451">
        <ele>279.8</ele>
        <time>2013-10-06T08:59:24Z</time>
      </trkpt>
      <trkpt lat="48.70436" lon="-0.66387">
        <ele>279.2</ele>
        <time>2013-10-06T08:59:33Z</time>
      </trkpt>
      <trkpt lat="48.70432" lon="-0.6638">
        <ele>279.2</ele>
        <time>2013-10-06T08:59:34Z</time>
      </trkpt>
      <trkpt lat="48.70393" lon="-0.66315">
        <ele>278.2</ele>
        <time>2013-10-06T08:59:46Z</time>
      </trkpt>
      <trkpt lat="48.70361" lon="-0.66259">
        <ele>277.6</ele>
        <time>2013-10-06T08:59:57Z</time>
      </trkpt>
      <trkpt lat="48.70358" lon="-0.66253">
        <ele>277.6</ele>
        <time>2013-10-06T08:59:58Z</time>
      </trkpt>
      <trkpt lat="48.70352" lon="-0.66242">
        <ele>277.6</ele>
        <time>2013-10-06T09:00:00Z</time>
      </trkpt>
      <trkpt lat="48.70343" lon="-0.66233">
        <ele>277.6</ele>
        <time>2013-10-06T09:00:02Z</time>
      </trkpt>
      <trkpt lat="48.70321" lon="-0.66188">
        <ele>277.4</ele>
        <time>2013-10-06T09:00:13Z</time>
      </trkpt>
      <trkpt lat="48.70292" lon="-0.66134">
        <ele>276.8</ele>
        <time>2013-10-06T09:00:24Z</time>
      </trkpt>
      <trkpt lat="48.70255" lon="-0.66073">
        <ele>276.2</ele>
        <time>2013-10-06T09:00:35Z</time>
      </trkpt>
      <trkpt lat="48.70228" lon="-0.66027">
        <ele>276.4</ele>
        <time>2013-10-06T09:00:43Z</time>
      </trkpt>
      <trkpt lat="48.70225" lon="-0.66022">
        <ele>276.4</ele>
        <time>2013-10-06T09:00:44Z</time>
      </trkpt>
      <trkpt lat="48.70191" lon="-0.65992">
        <ele>276.2</ele>
        <time>2013-10-06T09:00:52Z</time>
      </trkpt>
      <trkpt lat="48.70187" lon="-0.65987">
        <ele>276</ele>
        <time>2013-10-06T09:00:53Z</time>
      </trkpt>
      <trkpt lat="48.70136" lon="-0.6594">
        <ele>272.6</ele>
        <time>2013-10-06T09:01:04Z</time>
      </trkpt>
      <trkpt lat="48.70115" lon="-0.65921">
        <ele>270.8</ele>
        <time>2013-10-06T09:01:08Z</time>
      </trkpt>
      <trkpt lat="48.70106" lon="-0.65909">
        <ele>269.8</ele>
        <time>2013-10-06T09:01:10Z</time>
      </trkpt>
      <trkpt lat="48.701" lon="-0.65901">
        <ele>268.6</ele>
        <time>2013-10-06T09:01:11Z</time>
      </trkpt>
      <trkpt lat="48.70095" lon="-0.65894">
        <ele>268</ele>
        <time>2013-10-06T09:01:12Z</time>
      </trkpt>
      <trkpt lat="48.70065" lon="-0.65849">
        <ele>265</ele>
        <time>2013-10-06T09:01:17Z</time>
      </trkpt>
      <trkpt lat="48.70043" lon="-0.658">
        <ele>261.4</ele>
        <time>2013-10-06T09:01:23Z</time>
      </trkpt>
      <trkpt lat="48.70028" lon="-0.65767">
        <ele>258.2</ele>
        <time>2013-10-06T09:01:30Z</time>
      </trkpt>
      <trkpt lat="48.70025" lon="-0.6576">
        <ele>256.4</ele>
        <time>2013-10-06T09:01:36Z</time>
      </trkpt>
      <trkpt lat="48.70025" lon="-0.65755">
        <ele>256.2</ele>
        <time>2013-10-06T09:01:37Z</time>
      </trkpt>
      <trkpt lat="48.70026" lon="-0.65751">
        <ele>256</ele>
        <time>2013-10-06T09:01:38Z</time>
      </trkpt>
      <trkpt lat="48.70027" lon="-0.65747">
        <ele>255.8</ele>
        <time>2013-10-06T09:01:39Z</time>
      </trkpt>
      <trkpt lat="48.70029" lon="-0.65743">
        <ele>255.6</ele>
        <time>2013-10-06T09:01:40Z</time>
      </trkpt>
      <trkpt lat="48.70057" lon="-0.65697">
        <ele>255.4</ele>
        <time>2013-10-06T09:01:54Z</time>
      </trkpt>
      <trkpt lat="48.70065" lon="-0.65687">
        <ele>255.2</ele>
        <time>2013-10-06T09:01:58Z</time>
      </trkpt>
      <trkpt lat="48.70065" lon="-0.65685">
        <ele>255</ele>
        <time>2013-10-06T09:01:59Z</time>
      </trkpt>
      <trkpt lat="48.70065" lon="-0.65682">
        <ele>255</ele>
        <time>2013-10-06T09:02:00Z</time>
      </trkpt>
      <trkpt lat="48.70063" lon="-0.65678">
        <ele>254.8</ele>
        <time>2013-10-06T09:02:01Z</time>
      </trkpt>
      <trkpt lat="48.70061" lon="-0.65674">
        <ele>254.6</ele>
        <time>2013-10-06T09:02:02Z</time>
      </trkpt>
      <trkpt lat="48.70058" lon="-0.65671">
        <ele>254.2</ele>
        <time>2013-10-06T09:02:03Z</time>
      </trkpt>
      <trkpt lat="48.70037" lon="-0.65643">
        <ele>251.6</ele>
        <time>2013-10-06T09:02:10Z</time>
      </trkpt>
      <trkpt lat="48.70033" lon="-0.65638">
        <ele>251.2</ele>
        <time>2013-10-06T09:02:11Z</time>
      </trkpt>
      <trkpt lat="48.70018" lon="-0.65623">
        <ele>250</ele>
        <time>2013-10-06T09:02:15Z</time>
      </trkpt>
      <trkpt lat="48.70014" lon="-0.65618">
        <ele>249.6</ele>
        <time>2013-10-06T09:02:16Z</time>
      </trkpt>
      <trkpt lat="48.70011" lon="-0.65612">
        <ele>249.4</ele>
        <time>2013-10-06T09:02:17Z</time>
      </trkpt>
      <trkpt lat="48.70008" lon="-0.65606">
        <ele>249</ele>
        <time>2013-10-06T09:02:18Z</time>
      </trkpt>
      <trkpt lat="48.70005" lon="-0.65601">
        <ele>248.8</ele>
        <time>2013-10-06T09:02:19Z</time>
      </trkpt>
      <trkpt lat="48.70002" lon="-0.65595">
        <ele>248.4</ele>
        <time>2013-10-06T09:02:20Z</time>
      </trkpt>
      <trkpt lat="48.69968" lon="-0.65552">
        <ele>245.4</ele>
        <time>2013-10-06T09:02:31Z</time>
      </trkpt>
      <trkpt lat="48.69913" lon="-0.65534">
        <ele>244</ele>
        <time>2013-10-06T09:02:46Z</time>
      </trkpt>
      <trkpt lat="48.6988" lon="-0.65533">
        <ele>242.8</ele>
        <time>2013-10-06T09:02:56Z</time>
      </trkpt>
      <trkpt lat="48.69852" lon="-0.6551">
        <ele>240.4</ele>
        <time>2013-10-06T09:03:06Z</time>
      </trkpt>
      <trkpt lat="48.69812" lon="-0.65474">
        <ele>238.8</ele>
        <time>2013-10-06T09:03:18Z</time>
      </trkpt>
      <trkpt lat="48.69792" lon="-0.65461">
        <ele>237.6</ele>
        <time>2013-10-06T09:03:23Z</time>
      </trkpt>
      <trkpt lat="48.69778" lon="-0.65452">
        <ele>237</ele>
        <time>2013-10-06T09:03:26Z</time>
      </trkpt>
      <trkpt lat="48.69728" lon="-0.65451">
        <ele>234.8</ele>
        <time>2013-10-06T09:03:39Z</time>
      </trkpt>
      <trkpt lat="48.69716" lon="-0.65441">
        <ele>234.4</ele>
        <time>2013-10-06T09:03:51Z</time>
      </trkpt>
      <trkpt lat="48.69713" lon="-0.65424">
        <ele>234.4</ele>
        <time>2013-10-06T09:04:04Z</time>
      </trkpt>
      <trkpt lat="48.69713" lon="-0.65421">
        <ele>234.4</ele>
        <time>2013-10-06T09:04:06Z</time>
      </trkpt>
      <trkpt lat="48.69713" lon="-0.65415">
        <ele>234.4</ele>
        <time>2013-10-06T09:04:09Z</time>
      </trkpt>
      <trkpt lat="48.69709" lon="-0.65409">
        <ele>234.8</ele>
        <time>2013-10-06T09:04:12Z</time>
      </trkpt>
      <trkpt lat="48.69691" lon="-0.6541">
        <ele>235.4</ele>
        <time>2013-10-06T09:04:19Z</time>
      </trkpt>
      <trkpt lat="48.69669" lon="-0.6545">
        <ele>236.4</ele>
        <time>2013-10-06T09:04:33Z</time>
      </trkpt>
      <trkpt lat="48.69638" lon="-0.65472">
        <ele>236.4</ele>
        <time>2013-10-06T09:04:45Z</time>
      </trkpt>
      <trkpt lat="48.6963" lon="-0.65475">
        <ele>236.4</ele>
        <time>2013-10-06T09:04:48Z</time>
      </trkpt>
      <trkpt lat="48.69613" lon="-0.65456">
        <ele>236.8</ele>
        <time>2013-10-06T09:04:55Z</time>
      </trkpt>
      <trkpt lat="48.69597" lon="-0.65431">
        <ele>240.2</ele>
        <time>2013-10-06T09:05:11Z</time>
      </trkpt>
      <trkpt lat="48.69586" lon="-0.65409">
        <ele>242.2</ele>
        <time>2013-10-06T09:05:24Z</time>
      </trkpt>
      <trkpt lat="48.69579" lon="-0.65406">
        <ele>242.4</ele>
        <time>2013-10-06T09:05:26Z</time>
      </trkpt>
      <trkpt lat="48.69562" lon="-0.65406">
        <ele>242.8</ele>
        <time>2013-10-06T09:05:32Z</time>
      </trkpt>
      <trkpt lat="48.69516" lon="-0.65426">
        <ele>242</ele>
        <time>2013-10-06T09:05:45Z</time>
      </trkpt>
      <trkpt lat="48.69481" lon="-0.65453">
        <ele>240</ele>
        <time>2013-10-06T09:05:56Z</time>
      </trkpt>
      <trkpt lat="48.69448" lon="-0.65493">
        <ele>237</ele>
        <time>2013-10-06T09:06:07Z</time>
      </trkpt>
      <trkpt lat="48.69422" lon="-0.65528">
        <ele>233.6</ele>
        <time>2013-10-06T09:06:17Z</time>
      </trkpt>
      <trkpt lat="48.69404" lon="-0.65554">
        <ele>230.4</ele>
        <time>2013-10-06T09:06:27Z</time>
      </trkpt>
      <trkpt lat="48.69394" lon="-0.65561">
        <ele>229.4</ele>
        <time>2013-10-06T09:06:31Z</time>
      </trkpt>
      <trkpt lat="48.69388" lon="-0.65572">
        <ele>228.8</ele>
        <time>2013-10-06T09:06:34Z</time>
      </trkpt>
      <trkpt lat="48.69385" lon="-0.65572">
        <ele>228.6</ele>
        <time>2013-10-06T09:06:35Z</time>
      </trkpt>
      <trkpt lat="48.69382" lon="-0.6557">
        <ele>228.4</ele>
        <time>2013-10-06T09:06:36Z</time>
      </trkpt>
      <trkpt lat="48.69381" lon="-0.65566">
        <ele>228.2</ele>
        <time>2013-10-06T09:06:37Z</time>
      </trkpt>
      <trkpt lat="48.6938" lon="-0.65562">
        <ele>228</ele>
        <time>2013-10-06T09:06:38Z</time>
      </trkpt>
      <trkpt lat="48.69359" lon="-0.65504">
        <ele>229</ele>
        <time>2013-10-06T09:06:53Z</time>
      </trkpt>
      <trkpt lat="48.6934" lon="-0.65447">
        <ele>231</ele>
        <time>2013-10-06T09:07:06Z</time>
      </trkpt>
      <trkpt lat="48.69315" lon="-0.65372">
        <ele>233</ele>
        <time>2013-10-06T09:07:21Z</time>
      </trkpt>
      <trkpt lat="48.6928" lon="-0.65286">
        <ele>235</ele>
        <time>2013-10-06T09:07:37Z</time>
      </trkpt>
      <trkpt lat="48.69255" lon="-0.65217">
        <ele>236.4</ele>
        <time>2013-10-06T09:07:50Z</time>
      </trkpt>
      <trkpt lat="48.69247" lon="-0.65195">
        <ele>237</ele>
        <time>2013-10-06T09:07:54Z</time>
      </trkpt>
      <trkpt lat="48.69225" lon="-0.6512">
        <ele>237.8</ele>
        <time>2013-10-06T09:08:06Z</time>
      </trkpt>
      <trkpt lat="48.69201" lon="-0.65018">
        <ele>238.6</ele>
        <time>2013-10-06T09:08:23Z</time>
      </trkpt>
      <trkpt lat="48.6919" lon="-0.64962">
        <ele>238.2</ele>
        <time>2013-10-06T09:08:32Z</time>
      </trkpt>
      <trkpt lat="48.69187" lon="-0.64956">
        <ele>238.2</ele>
        <time>2013-10-06T09:08:33Z</time>
      </trkpt>
      <trkpt lat="48.69185" lon="-0.64949">
        <ele>238</ele>
        <time>2013-10-06T09:08:34Z</time>
      </trkpt>
      <trkpt lat="48.69182" lon="-0.64944">
        <ele>237.8</ele>
        <time>2013-10-06T09:08:35Z</time>
      </trkpt>
      <trkpt lat="48.69179" lon="-0.64939">
        <ele>237.6</ele>
        <time>2013-10-06T09:08:36Z</time>
      </trkpt>
      <trkpt lat="48.69175" lon="-0.64935">
        <ele>237.4</ele>
        <time>2013-10-06T09:08:37Z</time>
      </trkpt>
      <trkpt lat="48.6917" lon="-0.64932">
        <ele>237.2</ele>
        <time>2013-10-06T09:08:38Z</time>
      </trkpt>
      <trkpt lat="48.69165" lon="-0.64929">
        <ele>236.8</ele>
        <time>2013-10-06T09:08:39Z</time>
      </trkpt>
      <trkpt lat="48.69161" lon="-0.64926">
        <ele>236.6</ele>
        <time>2013-10-06T09:08:40Z</time>
      </trkpt>
      <trkpt lat="48.6915" lon="-0.64908">
        <ele>235.2</ele>
        <time>2013-10-06T09:08:45Z</time>
      </trkpt>
      <trkpt lat="48.6915" lon="-0.64903">
        <ele>234.8</ele>
        <time>2013-10-06T09:08:46Z</time>
      </trkpt>
      <trkpt lat="48.69152" lon="-0.649">
        <ele>234.8</ele>
        <time>2013-10-06T09:08:47Z</time>
      </trkpt>
      <trkpt lat="48.69154" lon="-0.64897">
        <ele>234.6</ele>
        <time>2013-10-06T09:08:48Z</time>
      </trkpt>
      <trkpt lat="48.69157" lon="-0.64896">
        <ele>234.4</ele>
        <time>2013-10-06T09:08:49Z</time>
      </trkpt>
      <trkpt lat="48.6916" lon="-0.64895">
        <ele>234.4</ele>
        <time>2013-10-06T09:08:50Z</time>
      </trkpt>
      <trkpt lat="48.69208" lon="-0.64869">
        <ele>236.6</ele>
        <time>2013-10-06T09:09:07Z</time>
      </trkpt>
      <trkpt lat="48.69242" lon="-0.64849">
        <ele>239.6</ele>
        <time>2013-10-06T09:09:21Z</time>
      </trkpt>
      <trkpt lat="48.69273" lon="-0.64826">
        <ele>242.8</ele>
        <time>2013-10-06T09:09:37Z</time>
      </trkpt>
      <trkpt lat="48.69284" lon="-0.6482">
        <ele>244</ele>
        <time>2013-10-06T09:09:43Z</time>
      </trkpt>
      <trkpt lat="48.69297" lon="-0.64813">
        <ele>245.2</ele>
        <time>2013-10-06T09:09:50Z</time>
      </trkpt>
      <trkpt lat="48.69306" lon="-0.64809">
        <ele>245.8</ele>
        <time>2013-10-06T09:09:55Z</time>
      </trkpt>
      <trkpt lat="48.69308" lon="-0.64808">
        <ele>246</ele>
        <time>2013-10-06T09:09:56Z</time>
      </trkpt>
      <trkpt lat="48.69312" lon="-0.64806">
        <ele>246.4</ele>
        <time>2013-10-06T09:09:58Z</time>
      </trkpt>
      <trkpt lat="48.69357" lon="-0.64792">
        <ele>248.8</ele>
        <time>2013-10-06T09:10:13Z</time>
      </trkpt>
      <trkpt lat="48.69392" lon="-0.64799">
        <ele>251</ele>
        <time>2013-10-06T09:10:27Z</time>
      </trkpt>
      <trkpt lat="48.69406" lon="-0.64799">
        <ele>252.2</ele>
        <time>2013-10-06T09:10:34Z</time>
      </trkpt>
      <trkpt lat="48.69408" lon="-0.64799">
        <ele>252.4</ele>
        <time>2013-10-06T09:10:35Z</time>
      </trkpt>
      <trkpt lat="48.6941" lon="-0.64798">
        <ele>252.6</ele>
        <time>2013-10-06T09:10:36Z</time>
      </trkpt>
      <trkpt lat="48.69415" lon="-0.64793">
        <ele>253.4</ele>
        <time>2013-10-06T09:10:40Z</time>
      </trkpt>
      <trkpt lat="48.69429" lon="-0.64781">
        <ele>254.8</ele>
        <time>2013-10-06T09:10:47Z</time>
      </trkpt>
      <trkpt lat="48.69431" lon="-0.64778">
        <ele>255</ele>
        <time>2013-10-06T09:10:48Z</time>
      </trkpt>
      <trkpt lat="48.69463" lon="-0.64754">
        <ele>257.8</ele>
        <time>2013-10-06T09:11:03Z</time>
      </trkpt>
      <trkpt lat="48.69496" lon="-0.64745">
        <ele>259.6</ele>
        <time>2013-10-06T09:11:18Z</time>
      </trkpt>
      <trkpt lat="48.6954" lon="-0.64731">
        <ele>259.4</ele>
        <time>2013-10-06T09:11:30Z</time>
      </trkpt>
      <trkpt lat="48.69609" lon="-0.64712">
        <ele>256</ele>
        <time>2013-10-06T09:11:40Z</time>
      </trkpt>
      <trkpt lat="48.69651" lon="-0.64696">
        <ele>253</ele>
        <time>2013-10-06T09:11:45Z</time>
      </trkpt>
      <trkpt lat="48.69697" lon="-0.64671">
        <ele>249.6</ele>
        <time>2013-10-06T09:11:50Z</time>
      </trkpt>
      <trkpt lat="48.69745" lon="-0.64645">
        <ele>246.2</ele>
        <time>2013-10-06T09:11:56Z</time>
      </trkpt>
      <trkpt lat="48.69773" lon="-0.64638">
        <ele>245.2</ele>
        <time>2013-10-06T09:12:00Z</time>
      </trkpt>
      <trkpt lat="48.69779" lon="-0.64636">
        <ele>245</ele>
        <time>2013-10-06T09:12:01Z</time>
      </trkpt>
      <trkpt lat="48.69785" lon="-0.64634">
        <ele>244.8</ele>
        <time>2013-10-06T09:12:02Z</time>
      </trkpt>
      <trkpt lat="48.69824" lon="-0.64622">
        <ele>245.8</ele>
        <time>2013-10-06T09:12:12Z</time>
      </trkpt>
      <trkpt lat="48.6986" lon="-0.64604">
        <ele>247.6</ele>
        <time>2013-10-06T09:12:25Z</time>
      </trkpt>
      <trkpt lat="48.69905" lon="-0.64582">
        <ele>249</ele>
        <time>2013-10-06T09:12:40Z</time>
      </trkpt>
      <trkpt lat="48.69947" lon="-0.64561">
        <ele>251.2</ele>
        <time>2013-10-06T09:12:54Z</time>
      </trkpt>
      <trkpt lat="48.69982" lon="-0.64546">
        <ele>253.4</ele>
        <time>2013-10-06T09:13:07Z</time>
      </trkpt>
      <trkpt lat="48.70013" lon="-0.64535">
        <ele>255.6</ele>
        <time>2013-10-06T09:13:19Z</time>
      </trkpt>
      <trkpt lat="48.70041" lon="-0.64523">
        <ele>257.6</ele>
        <time>2013-10-06T09:13:30Z</time>
      </trkpt>
      <trkpt lat="48.70068" lon="-0.64512">
        <ele>259.2</ele>
        <time>2013-10-06T09:13:41Z</time>
      </trkpt>
      <trkpt lat="48.70096" lon="-0.64493">
        <ele>261.8</ele>
        <time>2013-10-06T09:13:54Z</time>
      </trkpt>
      <trkpt lat="48.70095" lon="-0.6449">
        <ele>262</ele>
        <time>2013-10-06T09:13:55Z</time>
      </trkpt>
      <trkpt lat="48.70093" lon="-0.64482">
        <ele>262.8</ele>
        <time>2013-10-06T09:14:00Z</time>
      </trkpt>
      <trkpt lat="48.70079" lon="-0.64457">
        <ele>262.2</ele>
        <time>2013-10-06T09:14:09Z</time>
      </trkpt>
      <trkpt lat="48.70072" lon="-0.64408">
        <ele>262.6</ele>
        <time>2013-10-06T09:14:24Z</time>
      </trkpt>
      <trkpt lat="48.70066" lon="-0.64391">
        <ele>262.6</ele>
        <time>2013-10-06T09:14:31Z</time>
      </trkpt>
      <trkpt lat="48.70048" lon="-0.64378">
        <ele>262.4</ele>
        <time>2013-10-06T09:14:41Z</time>
      </trkpt>
      <trkpt lat="48.70034" lon="-0.64337">
        <ele>261.6</ele>
        <time>2013-10-06T09:14:54Z</time>
      </trkpt>
      <trkpt lat="48.70033" lon="-0.64331">
        <ele>261.4</ele>
        <time>2013-10-06T09:14:56Z</time>
      </trkpt>
      <trkpt lat="48.70029" lon="-0.64321">
        <ele>261.4</ele>
        <time>2013-10-06T09:15:00Z</time>
      </trkpt>
      <trkpt lat="48.70032" lon="-0.643">
        <ele>261.8</ele>
        <time>2013-10-06T09:15:07Z</time>
      </trkpt>
      <trkpt lat="48.70024" lon="-0.6427">
        <ele>262.6</ele>
        <time>2013-10-06T09:15:16Z</time>
      </trkpt>
      <trkpt lat="48.70006" lon="-0.64245">
        <ele>262.2</ele>
        <time>2013-10-06T09:15:25Z</time>
      </trkpt>
      <trkpt lat="48.70002" lon="-0.64215">
        <ele>262</ele>
        <time>2013-10-06T09:15:38Z</time>
      </trkpt>
      <trkpt lat="48.70002" lon="-0.64209">
        <ele>262</ele>
        <time>2013-10-06T09:15:43Z</time>
      </trkpt>
      <trkpt lat="48.69995" lon="-0.64189">
        <ele>262.2</ele>
        <time>2013-10-06T09:15:58Z</time>
      </trkpt>
      <trkpt lat="48.69985" lon="-0.64155">
        <ele>261.8</ele>
        <time>2013-10-06T09:16:10Z</time>
      </trkpt>
      <trkpt lat="48.6998" lon="-0.64134">
        <ele>261.8</ele>
        <time>2013-10-06T09:16:19Z</time>
      </trkpt>
      <trkpt lat="48.69979" lon="-0.64129">
        <ele>261.8</ele>
        <time>2013-10-06T09:16:21Z</time>
      </trkpt>
      <trkpt lat="48.69977" lon="-0.64124">
        <ele>261.8</ele>
        <time>2013-10-06T09:16:26Z</time>
      </trkpt>
      <trkpt lat="48.69967" lon="-0.64104">
        <ele>261.4</ele>
        <time>2013-10-06T09:16:36Z</time>
      </trkpt>
      <trkpt lat="48.69962" lon="-0.64095">
        <ele>261.4</ele>
        <time>2013-10-06T09:16:39Z</time>
      </trkpt>
      <trkpt lat="48.6995" lon="-0.64055">
        <ele>261</ele>
        <time>2013-10-06T09:16:52Z</time>
      </trkpt>
      <trkpt lat="48.69946" lon="-0.64017">
        <ele>260.8</ele>
        <time>2013-10-06T09:17:03Z</time>
      </trkpt>
      <trkpt lat="48.69932" lon="-0.63972">
        <ele>260.6</ele>
        <time>2013-10-06T09:17:16Z</time>
      </trkpt>
      <trkpt lat="48.69924" lon="-0.63932">
        <ele>260.2</ele>
        <time>2013-10-06T09:17:28Z</time>
      </trkpt>
      <trkpt lat="48.69915" lon="-0.63912">
        <ele>260.2</ele>
        <time>2013-10-06T09:17:34Z</time>
      </trkpt>
      <trkpt lat="48.69897" lon="-0.63865">
        <ele>260</ele>
        <time>2013-10-06T09:17:47Z</time>
      </trkpt>
      <trkpt lat="48.69885" lon="-0.63827">
        <ele>259.8</ele>
        <time>2013-10-06T09:17:58Z</time>
      </trkpt>
      <trkpt lat="48.69875" lon="-0.63782">
        <ele>260</ele>
        <time>2013-10-06T09:18:10Z</time>
      </trkpt>
      <trkpt lat="48.69857" lon="-0.63726">
        <ele>260</ele>
        <time>2013-10-06T09:18:23Z</time>
      </trkpt>
      <trkpt lat="48.69842" lon="-0.63671">
        <ele>260.2</ele>
        <time>2013-10-06T09:18:36Z</time>
      </trkpt>
      <trkpt lat="48.69836" lon="-0.63654">
        <ele>260.4</ele>
        <time>2013-10-06T09:18:39Z</time>
      </trkpt>
      <trkpt lat="48.69825" lon="-0.63615">
        <ele>261</ele>
        <time>2013-10-06T09:18:47Z</time>
      </trkpt>
      <trkpt lat="48.69812" lon="-0.63588">
        <ele>262.2</ele>
        <time>2013-10-06T09:18:54Z</time>
      </trkpt>
      <trkpt lat="48.69795" lon="-0.63535">
        <ele>263.4</ele>
        <time>2013-10-06T09:19:07Z</time>
      </trkpt>
      <trkpt lat="48.6978" lon="-0.63481">
        <ele>265.6</ele>
        <time>2013-10-06T09:19:20Z</time>
      </trkpt>
      <trkpt lat="48.69761" lon="-0.63426">
        <ele>267.2</ele>
        <time>2013-10-06T09:19:33Z</time>
      </trkpt>
      <trkpt lat="48.69744" lon="-0.63372">
        <ele>269.2</ele>
        <time>2013-10-06T09:19:47Z</time>
      </trkpt>
      <trkpt lat="48.69732" lon="-0.63333">
        <ele>270.6</ele>
        <time>2013-10-06T09:19:59Z</time>
      </trkpt>
      <trkpt lat="48.69721" lon="-0.63292">
        <ele>271.8</ele>
        <time>2013-10-06T09:20:12Z</time>
      </trkpt>
      <trkpt lat="48.69717" lon="-0.63276">
        <ele>272.2</ele>
        <time>2013-10-06T09:20:16Z</time>
      </trkpt>
      <trkpt lat="48.69709" lon="-0.63257">
        <ele>272.6</ele>
        <time>2013-10-06T09:20:22Z</time>
      </trkpt>
      <trkpt lat="48.69691" lon="-0.63199">
        <ele>274</ele>
        <time>2013-10-06T09:20:37Z</time>
      </trkpt>
      <trkpt lat="48.69678" lon="-0.6316">
        <ele>274.2</ele>
        <time>2013-10-06T09:20:50Z</time>
      </trkpt>
      <trkpt lat="48.69667" lon="-0.63124">
        <ele>274.6</ele>
        <time>2013-10-06T09:21:01Z</time>
      </trkpt>
      <trkpt lat="48.69656" lon="-0.63089">
        <ele>274.8</ele>
        <time>2013-10-06T09:21:11Z</time>
      </trkpt>
      <trkpt lat="48.69643" lon="-0.63046">
        <ele>274.4</ele>
        <time>2013-10-06T09:21:21Z</time>
      </trkpt>
      <trkpt lat="48.69635" lon="-0.63023">
        <ele>274.4</ele>
        <time>2013-10-06T09:21:27Z</time>
      </trkpt>
      <trkpt lat="48.69639" lon="-0.62986">
        <ele>274.4</ele>
        <time>2013-10-06T09:21:37Z</time>
      </trkpt>
      <trkpt lat="48.69637" lon="-0.62977">
        <ele>274.4</ele>
        <time>2013-10-06T09:21:39Z</time>
      </trkpt>
      <trkpt lat="48.69634" lon="-0.6295">
        <ele>274.6</ele>
        <time>2013-10-06T09:21:45Z</time>
      </trkpt>
      <trkpt lat="48.69631" lon="-0.62938">
        <ele>274.8</ele>
        <time>2013-10-06T09:21:49Z</time>
      </trkpt>
      <trkpt lat="48.69628" lon="-0.62932">
        <ele>274.6</ele>
        <time>2013-10-06T09:21:51Z</time>
      </trkpt>
      <trkpt lat="48.69622" lon="-0.62917">
        <ele>274.4</ele>
        <time>2013-10-06T09:21:56Z</time>
      </trkpt>
      <trkpt lat="48.69614" lon="-0.62903">
        <ele>274.2</ele>
        <time>2013-10-06T09:22:00Z</time>
      </trkpt>
      <trkpt lat="48.69598" lon="-0.62847">
        <ele>273.4</ele>
        <time>2013-10-06T09:22:15Z</time>
      </trkpt>
      <trkpt lat="48.69597" lon="-0.62839">
        <ele>273.4</ele>
        <time>2013-10-06T09:22:17Z</time>
      </trkpt>
      <trkpt lat="48.69592" lon="-0.62824">
        <ele>273.2</ele>
        <time>2013-10-06T09:22:22Z</time>
      </trkpt>
      <trkpt lat="48.69589" lon="-0.62818">
        <ele>273.2</ele>
        <time>2013-10-06T09:22:24Z</time>
      </trkpt>
      <trkpt lat="48.69586" lon="-0.62807">
        <ele>273</ele>
        <time>2013-10-06T09:22:28Z</time>
      </trkpt>
      <trkpt lat="48.69585" lon="-0.62797">
        <ele>272.8</ele>
        <time>2013-10-06T09:22:31Z</time>
      </trkpt>
      <trkpt lat="48.69577" lon="-0.62772">
        <ele>272.8</ele>
        <time>2013-10-06T09:22:37Z</time>
      </trkpt>
      <trkpt lat="48.69573" lon="-0.62751">
        <ele>272.8</ele>
        <time>2013-10-06T09:22:43Z</time>
      </trkpt>
      <trkpt lat="48.69569" lon="-0.62745">
        <ele>272.6</ele>
        <time>2013-10-06T09:22:45Z</time>
      </trkpt>
      <trkpt lat="48.69561" lon="-0.62737">
        <ele>272.4</ele>
        <time>2013-10-06T09:22:49Z</time>
      </trkpt>
      <trkpt lat="48.69556" lon="-0.62725">
        <ele>271.8</ele>
        <time>2013-10-06T09:22:54Z</time>
      </trkpt>
      <trkpt lat="48.69529" lon="-0.62689">
        <ele>270.4</ele>
        <time>2013-10-06T09:24:42Z</time>
      </trkpt>
      <trkpt lat="48.69527" lon="-0.62683">
        <ele>270.4</ele>
        <time>2013-10-06T09:24:44Z</time>
      </trkpt>
      <trkpt lat="48.69515" lon="-0.62643">
        <ele>268.6</ele>
        <time>2013-10-06T09:24:59Z</time>
      </trkpt>
      <trkpt lat="48.69506" lon="-0.62619">
        <ele>267.8</ele>
        <time>2013-10-06T09:25:08Z</time>
      </trkpt>
      <trkpt lat="48.69504" lon="-0.62614">
        <ele>267.6</ele>
        <time>2013-10-06T09:25:10Z</time>
      </trkpt>
      <trkpt lat="48.69499" lon="-0.62601">
        <ele>267.6</ele>
        <time>2013-10-06T09:25:14Z</time>
      </trkpt>
      <trkpt lat="48.69486" lon="-0.62568">
        <ele>267.4</ele>
        <time>2013-10-06T09:25:26Z</time>
      </trkpt>
      <trkpt lat="48.69486" lon="-0.62566">
        <ele>267.4</ele>
        <time>2013-10-06T09:25:27Z</time>
      </trkpt>
      <trkpt lat="48.6948" lon="-0.62549">
        <ele>267.2</ele>
        <time>2013-10-06T09:25:33Z</time>
      </trkpt>
      <trkpt lat="48.69479" lon="-0.62538">
        <ele>266.8</ele>
        <time>2013-10-06T09:25:37Z</time>
      </trkpt>
      <trkpt lat="48.69465" lon="-0.62501">
        <ele>266.4</ele>
        <time>2013-10-06T09:25:50Z</time>
      </trkpt>
      <trkpt lat="48.69453" lon="-0.62477">
        <ele>265.8</ele>
        <time>2013-10-06T09:26:01Z</time>
      </trkpt>
      <trkpt lat="48.69446" lon="-0.62458">
        <ele>265.4</ele>
        <time>2013-10-06T09:26:09Z</time>
      </trkpt>
      <trkpt lat="48.69445" lon="-0.62442">
        <ele>265</ele>
        <time>2013-10-06T09:26:15Z</time>
      </trkpt>
      <trkpt lat="48.69441" lon="-0.62424">
        <ele>264.6</ele>
        <time>2013-10-06T09:26:20Z</time>
      </trkpt>
      <trkpt lat="48.69422" lon="-0.62378">
        <ele>263</ele>
        <time>2013-10-06T09:26:32Z</time>
      </trkpt>
      <trkpt lat="48.69409" lon="-0.62343">
        <ele>261.2</ele>
        <time>2013-10-06T09:26:41Z</time>
      </trkpt>
      <trkpt lat="48.69397" lon="-0.62305">
        <ele>259.8</ele>
        <time>2013-10-06T09:26:48Z</time>
      </trkpt>
      <trkpt lat="48.69384" lon="-0.62252">
        <ele>258.6</ele>
        <time>2013-10-06T09:27:01Z</time>
      </trkpt>
      <trkpt lat="48.6938" lon="-0.62242">
        <ele>258.6</ele>
        <time>2013-10-06T09:27:04Z</time>
      </trkpt>
      <trkpt lat="48.69379" lon="-0.62228">
        <ele>258</ele>
        <time>2013-10-06T09:27:09Z</time>
      </trkpt>
      <trkpt lat="48.69372" lon="-0.62201">
        <ele>257.8</ele>
        <time>2013-10-06T09:27:16Z</time>
      </trkpt>
      <trkpt lat="48.69348" lon="-0.62114">
        <ele>256.8</ele>
        <time>2013-10-06T09:27:33Z</time>
      </trkpt>
      <trkpt lat="48.69324" lon="-0.62039">
        <ele>256.4</ele>
        <time>2013-10-06T09:27:48Z</time>
      </trkpt>
      <trkpt lat="48.69301" lon="-0.6197">
        <ele>256.4</ele>
        <time>2013-10-06T09:28:02Z</time>
      </trkpt>
      <trkpt lat="48.69285" lon="-0.61919">
        <ele>256.4</ele>
        <time>2013-10-06T09:28:14Z</time>
      </trkpt>
      <trkpt lat="48.69265" lon="-0.61858">
        <ele>257.2</ele>
        <time>2013-10-06T09:28:28Z</time>
      </trkpt>
      <trkpt lat="48.69251" lon="-0.61811">
        <ele>258.2</ele>
        <time>2013-10-06T09:28:43Z</time>
      </trkpt>
      <trkpt lat="48.69235" lon="-0.61765">
        <ele>259</ele>
        <time>2013-10-06T09:28:54Z</time>
      </trkpt>
      <trkpt lat="48.69219" lon="-0.61718">
        <ele>260.2</ele>
        <time>2013-10-06T09:29:05Z</time>
      </trkpt>
      <trkpt lat="48.69205" lon="-0.6167">
        <ele>261.2</ele>
        <time>2013-10-06T09:29:17Z</time>
      </trkpt>
      <trkpt lat="48.69192" lon="-0.61627">
        <ele>261.6</ele>
        <time>2013-10-06T09:29:29Z</time>
      </trkpt>
      <trkpt lat="48.69188" lon="-0.61616">
        <ele>261.8</ele>
        <time>2013-10-06T09:29:32Z</time>
      </trkpt>
      <trkpt lat="48.69185" lon="-0.61603">
        <ele>261.6</ele>
        <time>2013-10-06T09:29:37Z</time>
      </trkpt>
      <trkpt lat="48.69181" lon="-0.61602">
        <ele>261.6</ele>
        <time>2013-10-06T09:29:45Z</time>
      </trkpt>
      <trkpt lat="48.69179" lon="-0.61582">
        <ele>261.8</ele>
        <time>2013-10-06T09:30:08Z</time>
      </trkpt>
      <trkpt lat="48.69178" lon="-0.61579">
        <ele>262</ele>
        <time>2013-10-06T09:30:09Z</time>
      </trkpt>
      <trkpt lat="48.69177" lon="-0.61576">
        <ele>262</ele>
        <time>2013-10-06T09:30:10Z</time>
      </trkpt>
      <trkpt lat="48.69175" lon="-0.61573">
        <ele>262</ele>
        <time>2013-10-06T09:30:11Z</time>
      </trkpt>
      <trkpt lat="48.69162" lon="-0.61545">
        <ele>261.6</ele>
        <time>2013-10-06T09:30:23Z</time>
      </trkpt>
      <trkpt lat="48.6915" lon="-0.61504">
        <ele>260.4</ele>
        <time>2013-10-06T09:30:34Z</time>
      </trkpt>
      <trkpt lat="48.69134" lon="-0.6146">
        <ele>259</ele>
        <time>2013-10-06T09:30:46Z</time>
      </trkpt>
      <trkpt lat="48.6913" lon="-0.6145">
        <ele>258.8</ele>
        <time>2013-10-06T09:30:50Z</time>
      </trkpt>
      <trkpt lat="48.69129" lon="-0.61448">
        <ele>258.6</ele>
        <time>2013-10-06T09:30:51Z</time>
      </trkpt>
      <trkpt lat="48.69129" lon="-0.61445">
        <ele>258.6</ele>
        <time>2013-10-06T09:30:52Z</time>
      </trkpt>
      <trkpt lat="48.69128" lon="-0.61442">
        <ele>258.6</ele>
        <time>2013-10-06T09:30:53Z</time>
      </trkpt>
      <trkpt lat="48.69127" lon="-0.6144">
        <ele>258.4</ele>
        <time>2013-10-06T09:30:54Z</time>
      </trkpt>
      <trkpt lat="48.69119" lon="-0.6143">
        <ele>258</ele>
        <time>2013-10-06T09:31:01Z</time>
      </trkpt>
      <trkpt lat="48.69101" lon="-0.614">
        <ele>257.4</ele>
        <time>2013-10-06T09:31:39Z</time>
      </trkpt>
      <trkpt lat="48.69099" lon="-0.61396">
        <ele>257.4</ele>
        <time>2013-10-06T09:31:40Z</time>
      </trkpt>
      <trkpt lat="48.69098" lon="-0.61392">
        <ele>257.4</ele>
        <time>2013-10-06T09:31:41Z</time>
      </trkpt>
      <trkpt lat="48.69081" lon="-0.61348">
        <ele>256.6</ele>
        <time>2013-10-06T09:31:49Z</time>
      </trkpt>
      <trkpt lat="48.69079" lon="-0.61341">
        <ele>256.4</ele>
        <time>2013-10-06T09:31:50Z</time>
      </trkpt>
      <trkpt lat="48.69058" lon="-0.61282">
        <ele>254.6</ele>
        <time>2013-10-06T09:32:01Z</time>
      </trkpt>
      <trkpt lat="48.69038" lon="-0.61226">
        <ele>253.6</ele>
        <time>2013-10-06T09:32:10Z</time>
      </trkpt>
      <trkpt lat="48.69027" lon="-0.61191">
        <ele>253</ele>
        <time>2013-10-06T09:32:14Z</time>
      </trkpt>
      <trkpt lat="48.69026" lon="-0.61183">
        <ele>253</ele>
        <time>2013-10-06T09:32:15Z</time>
      </trkpt>
      <trkpt lat="48.68997" lon="-0.61092">
        <ele>250.6</ele>
        <time>2013-10-06T09:32:26Z</time>
      </trkpt>
      <trkpt lat="48.6899" lon="-0.61066">
        <ele>250</ele>
        <time>2013-10-06T09:32:29Z</time>
      </trkpt>
      <trkpt lat="48.68985" lon="-0.61046">
        <ele>249.8</ele>
        <time>2013-10-06T09:32:31Z</time>
      </trkpt>
      <trkpt lat="48.68968" lon="-0.60992">
        <ele>248.6</ele>
        <time>2013-10-06T09:32:38Z</time>
      </trkpt>
      <trkpt lat="48.68966" lon="-0.60985">
        <ele>248.4</ele>
        <time>2013-10-06T09:32:39Z</time>
      </trkpt>
      <trkpt lat="48.68963" lon="-0.60978">
        <ele>248.2</ele>
        <time>2013-10-06T09:32:40Z</time>
      </trkpt>
      <trkpt lat="48.68944" lon="-0.60922">
        <ele>248.4</ele>
        <time>2013-10-06T09:32:50Z</time>
      </trkpt>
      <trkpt lat="48.68935" lon="-0.60911">
        <ele>248.8</ele>
        <time>2013-10-06T09:32:55Z</time>
      </trkpt>
      <trkpt lat="48.68935" lon="-0.60907">
        <ele>248.8</ele>
        <time>2013-10-06T09:32:56Z</time>
      </trkpt>
      <trkpt lat="48.68932" lon="-0.6086">
        <ele>249</ele>
        <time>2013-10-06T09:33:08Z</time>
      </trkpt>
      <trkpt lat="48.6893" lon="-0.60855">
        <ele>249</ele>
        <time>2013-10-06T09:33:09Z</time>
      </trkpt>
      <trkpt lat="48.68898" lon="-0.60818">
        <ele>248.6</ele>
        <time>2013-10-06T09:33:19Z</time>
      </trkpt>
      <trkpt lat="48.68866" lon="-0.60782">
        <ele>248</ele>
        <time>2013-10-06T09:33:31Z</time>
      </trkpt>
      <trkpt lat="48.68826" lon="-0.60727">
        <ele>247</ele>
        <time>2013-10-06T09:33:43Z</time>
      </trkpt>
      <trkpt lat="48.68811" lon="-0.60693">
        <ele>246.4</ele>
        <time>2013-10-06T09:33:48Z</time>
      </trkpt>
      <trkpt lat="48.68807" lon="-0.60685">
        <ele>246.4</ele>
        <time>2013-10-06T09:33:49Z</time>
      </trkpt>
      <trkpt lat="48.68784" lon="-0.60639">
        <ele>245.8</ele>
        <time>2013-10-06T09:33:56Z</time>
      </trkpt>
      <trkpt lat="48.68781" lon="-0.60631">
        <ele>245.8</ele>
        <time>2013-10-06T09:33:57Z</time>
      </trkpt>
      <trkpt lat="48.68777" lon="-0.60622">
        <ele>245.8</ele>
        <time>2013-10-06T09:33:58Z</time>
      </trkpt>
      <trkpt lat="48.68774" lon="-0.60614">
        <ele>245.6</ele>
        <time>2013-10-06T09:33:59Z</time>
      </trkpt>
      <trkpt lat="48.68771" lon="-0.60609">
        <ele>245.6</ele>
        <time>2013-10-06T09:34:00Z</time>
      </trkpt>
      <trkpt lat="48.68768" lon="-0.60603">
        <ele>245.6</ele>
        <time>2013-10-06T09:34:01Z</time>
      </trkpt>
      <trkpt lat="48.68763" lon="-0.6059">
        <ele>245.2</ele>
        <time>2013-10-06T09:34:03Z</time>
      </trkpt>
      <trkpt lat="48.68761" lon="-0.60584">
        <ele>245.2</ele>
        <time>2013-10-06T09:34:04Z</time>
      </trkpt>
      <trkpt lat="48.68736" lon="-0.60535">
        <ele>244.4</ele>
        <time>2013-10-06T09:34:11Z</time>
      </trkpt>
      <trkpt lat="48.68695" lon="-0.60439">
        <ele>243.2</ele>
        <time>2013-10-06T09:34:22Z</time>
      </trkpt>
      <trkpt lat="48.68657" lon="-0.60348">
        <ele>242.2</ele>
        <time>2013-10-06T09:34:34Z</time>
      </trkpt>
      <trkpt lat="48.68647" lon="-0.60328">
        <ele>242</ele>
        <time>2013-10-06T09:34:37Z</time>
      </trkpt>
      <trkpt lat="48.68645" lon="-0.60322">
        <ele>241.8</ele>
        <time>2013-10-06T09:34:38Z</time>
      </trkpt>
      <trkpt lat="48.68641" lon="-0.60314">
        <ele>241.6</ele>
        <time>2013-10-06T09:34:39Z</time>
      </trkpt>
      <trkpt lat="48.68638" lon="-0.60308">
        <ele>241.4</ele>
        <time>2013-10-06T09:34:40Z</time>
      </trkpt>
      <trkpt lat="48.68635" lon="-0.60302">
        <ele>241.4</ele>
        <time>2013-10-06T09:34:41Z</time>
      </trkpt>
      <trkpt lat="48.68604" lon="-0.6024">
        <ele>240.6</ele>
        <time>2013-10-06T09:34:50Z</time>
      </trkpt>
      <trkpt lat="48.68564" lon="-0.60147">
        <ele>239</ele>
        <time>2013-10-06T09:35:02Z</time>
      </trkpt>
      <trkpt lat="48.68561" lon="-0.60141">
        <ele>238.8</ele>
        <time>2013-10-06T09:35:03Z</time>
      </trkpt>
      <trkpt lat="48.68559" lon="-0.60137">
        <ele>238.6</ele>
        <time>2013-10-06T09:35:04Z</time>
      </trkpt>
      <trkpt lat="48.68551" lon="-0.60106">
        <ele>237.8</ele>
        <time>2013-10-06T09:35:15Z</time>
      </trkpt>
      <trkpt lat="48.68551" lon="-0.60103">
        <ele>237.8</ele>
        <time>2013-10-06T09:35:16Z</time>
      </trkpt>
      <trkpt lat="48.68552" lon="-0.601">
        <ele>237.8</ele>
        <time>2013-10-06T09:35:17Z</time>
      </trkpt>
      <trkpt lat="48.68557" lon="-0.60091">
        <ele>237.8</ele>
        <time>2013-10-06T09:35:21Z</time>
      </trkpt>
      <trkpt lat="48.68572" lon="-0.60075">
        <ele>238.4</ele>
        <time>2013-10-06T09:35:32Z</time>
      </trkpt>
      <trkpt lat="48.68594" lon="-0.60062">
        <ele>239.2</ele>
        <time>2013-10-06T09:35:43Z</time>
      </trkpt>
      <trkpt lat="48.68612" lon="-0.60045">
        <ele>240.8</ele>
        <time>2013-10-06T09:35:52Z</time>
      </trkpt>
      <trkpt lat="48.68628" lon="-0.60033">
        <ele>241.4</ele>
        <time>2013-10-06T09:35:59Z</time>
      </trkpt>
      <trkpt lat="48.68653" lon="-0.60013">
        <ele>243.2</ele>
        <time>2013-10-06T09:36:12Z</time>
      </trkpt>
      <trkpt lat="48.68655" lon="-0.60012">
        <ele>243.4</ele>
        <time>2013-10-06T09:36:13Z</time>
      </trkpt>
      <trkpt lat="48.68683" lon="-0.59991">
        <ele>245.2</ele>
        <time>2013-10-06T09:36:27Z</time>
      </trkpt>
      <trkpt lat="48.68687" lon="-0.59989">
        <ele>245.4</ele>
        <time>2013-10-06T09:36:29Z</time>
      </trkpt>
      <trkpt lat="48.68699" lon="-0.59985">
        <ele>246</ele>
        <time>2013-10-06T09:36:35Z</time>
      </trkpt>
      <trkpt lat="48.68733" lon="-0.5996">
        <ele>246</ele>
        <time>2013-10-06T09:36:51Z</time>
      </trkpt>
      <trkpt lat="48.68753" lon="-0.59949">
        <ele>244.6</ele>
        <time>2013-10-06T09:37:02Z</time>
      </trkpt>
      <trkpt lat="48.68755" lon="-0.59947">
        <ele>244.6</ele>
        <time>2013-10-06T09:37:03Z</time>
      </trkpt>
      <trkpt lat="48.68768" lon="-0.59939">
        <ele>244</ele>
        <time>2013-10-06T09:37:10Z</time>
      </trkpt>
      <trkpt lat="48.68781" lon="-0.59929">
        <ele>243</ele>
        <time>2013-10-06T09:37:17Z</time>
      </trkpt>
      <trkpt lat="48.68804" lon="-0.59919">
        <ele>241</ele>
        <time>2013-10-06T09:37:32Z</time>
      </trkpt>
      <trkpt lat="48.6881" lon="-0.59914">
        <ele>240.2</ele>
        <time>2013-10-06T09:37:43Z</time>
      </trkpt>
      <trkpt lat="48.68899" lon="-0.59867">
        <ele>238.2</ele>
        <time>2013-10-06T09:39:43Z</time>
      </trkpt>
      <trkpt lat="48.68932" lon="-0.5984">
        <ele>238.8</ele>
        <time>2013-10-06T09:39:58Z</time>
      </trkpt>
      <trkpt lat="48.68956" lon="-0.59817">
        <ele>239</ele>
        <time>2013-10-06T09:40:10Z</time>
      </trkpt>
      <trkpt lat="48.68981" lon="-0.59806">
        <ele>239.8</ele>
        <time>2013-10-06T09:40:21Z</time>
      </trkpt>
      <trkpt lat="48.69" lon="-0.5979">
        <ele>240.8</ele>
        <time>2013-10-06T09:40:32Z</time>
      </trkpt>
      <trkpt lat="48.69036" lon="-0.59765">
        <ele>242.8</ele>
        <time>2013-10-06T09:40:47Z</time>
      </trkpt>
      <trkpt lat="48.69065" lon="-0.59741">
        <ele>244.4</ele>
        <time>2013-10-06T09:41:01Z</time>
      </trkpt>
      <trkpt lat="48.69089" lon="-0.59722">
        <ele>245.4</ele>
        <time>2013-10-06T09:41:13Z</time>
      </trkpt>
      <trkpt lat="48.6912" lon="-0.59704">
        <ele>246.2</ele>
        <time>2013-10-06T09:41:26Z</time>
      </trkpt>
      <trkpt lat="48.69146" lon="-0.59689">
        <ele>246.6</ele>
        <time>2013-10-06T09:41:38Z</time>
      </trkpt>
      <trkpt lat="48.69163" lon="-0.59673">
        <ele>247.2</ele>
        <time>2013-10-06T09:41:49Z</time>
      </trkpt>
      <trkpt lat="48.69179" lon="-0.59668">
        <ele>247.4</ele>
        <time>2013-10-06T09:42:05Z</time>
      </trkpt>
      <trkpt lat="48.69186" lon="-0.59669">
        <ele>247.4</ele>
        <time>2013-10-06T09:42:12Z</time>
      </trkpt>
      <trkpt lat="48.69194" lon="-0.59663">
        <ele>247.4</ele>
        <time>2013-10-06T09:42:16Z</time>
      </trkpt>
      <trkpt lat="48.69227" lon="-0.59623">
        <ele>247.4</ele>
        <time>2013-10-06T09:42:28Z</time>
      </trkpt>
      <trkpt lat="48.69251" lon="-0.59605">
        <ele>246.6</ele>
        <time>2013-10-06T09:42:39Z</time>
      </trkpt>
      <trkpt lat="48.69261" lon="-0.59598">
        <ele>246.6</ele>
        <time>2013-10-06T09:42:45Z</time>
      </trkpt>
      <trkpt lat="48.69273" lon="-0.59582">
        <ele>246.6</ele>
        <time>2013-10-06T09:42:51Z</time>
      </trkpt>
      <trkpt lat="48.69278" lon="-0.59579">
        <ele>246</ele>
        <time>2013-10-06T09:43:01Z</time>
      </trkpt>
      <trkpt lat="48.69271" lon="-0.59591">
        <ele>246</ele>
        <time>2013-10-06T09:43:39Z</time>
      </trkpt>
      <trkpt lat="48.69285" lon="-0.5963">
        <ele>247.2</ele>
        <time>2013-10-06T09:43:52Z</time>
      </trkpt>
      <trkpt lat="48.69309" lon="-0.59693">
        <ele>250.4</ele>
        <time>2013-10-06T09:44:09Z</time>
      </trkpt>
      <trkpt lat="48.69322" lon="-0.59735">
        <ele>253</ele>
        <time>2013-10-06T09:44:21Z</time>
      </trkpt>
      <trkpt lat="48.69339" lon="-0.5979">
        <ele>255.6</ele>
        <time>2013-10-06T09:44:33Z</time>
      </trkpt>
      <trkpt lat="48.69362" lon="-0.59858">
        <ele>258.6</ele>
        <time>2013-10-06T09:44:48Z</time>
      </trkpt>
      <trkpt lat="48.69379" lon="-0.59916">
        <ele>261.4</ele>
        <time>2013-10-06T09:45:02Z</time>
      </trkpt>
      <trkpt lat="48.69396" lon="-0.59967">
        <ele>264</ele>
        <time>2013-10-06T09:45:14Z</time>
      </trkpt>
      <trkpt lat="48.69413" lon="-0.60023">
        <ele>266.8</ele>
        <time>2013-10-06T09:45:27Z</time>
      </trkpt>
      <trkpt lat="48.69435" lon="-0.60082">
        <ele>269</ele>
        <time>2013-10-06T09:45:41Z</time>
      </trkpt>
      <trkpt lat="48.69453" lon="-0.60143">
        <ele>270.6</ele>
        <time>2013-10-06T09:45:55Z</time>
      </trkpt>
      <trkpt lat="48.69475" lon="-0.60207">
        <ele>271.2</ele>
        <time>2013-10-06T09:46:10Z</time>
      </trkpt>
      <trkpt lat="48.69497" lon="-0.60275">
        <ele>271.6</ele>
        <time>2013-10-06T09:46:26Z</time>
      </trkpt>
      <trkpt lat="48.69518" lon="-0.60338">
        <ele>272</ele>
        <time>2013-10-06T09:46:40Z</time>
      </trkpt>
      <trkpt lat="48.69543" lon="-0.6043">
        <ele>272</ele>
        <time>2013-10-06T09:46:56Z</time>
      </trkpt>
      <trkpt lat="48.69545" lon="-0.60436">
        <ele>272</ele>
        <time>2013-10-06T09:46:57Z</time>
      </trkpt>
      <trkpt lat="48.6956" lon="-0.60477">
        <ele>272.2</ele>
        <time>2013-10-06T09:47:06Z</time>
      </trkpt>
      <trkpt lat="48.69562" lon="-0.60477">
        <ele>272.2</ele>
        <time>2013-10-06T09:47:07Z</time>
      </trkpt>
      <trkpt lat="48.69566" lon="-0.60476">
        <ele>272.2</ele>
        <time>2013-10-06T09:47:09Z</time>
      </trkpt>
      <trkpt lat="48.69589" lon="-0.60461">
        <ele>272.6</ele>
        <time>2013-10-06T09:47:20Z</time>
      </trkpt>
      <trkpt lat="48.69595" lon="-0.60459">
        <ele>272.8</ele>
        <time>2013-10-06T09:47:23Z</time>
      </trkpt>
      <trkpt lat="48.69618" lon="-0.60442">
        <ele>272.8</ele>
        <time>2013-10-06T09:47:33Z</time>
      </trkpt>
      <trkpt lat="48.69645" lon="-0.60427">
        <ele>273.4</ele>
        <time>2013-10-06T09:47:44Z</time>
      </trkpt>
      <trkpt lat="48.69689" lon="-0.6039">
        <ele>274</ele>
        <time>2013-10-06T09:47:56Z</time>
      </trkpt>
      <trkpt lat="48.69736" lon="-0.60364">
        <ele>273</ele>
        <time>2013-10-06T09:48:08Z</time>
      </trkpt>
      <trkpt lat="48.6976" lon="-0.60347">
        <ele>272.4</ele>
        <time>2013-10-06T09:48:13Z</time>
      </trkpt>
      <trkpt lat="48.69823" lon="-0.60301">
        <ele>269.2</ele>
        <time>2013-10-06T09:48:24Z</time>
      </trkpt>
      <trkpt lat="48.69838" lon="-0.60286">
        <ele>267.4</ele>
        <time>2013-10-06T09:48:28Z</time>
      </trkpt>
      <trkpt lat="48.69841" lon="-0.60284">
        <ele>267.4</ele>
        <time>2013-10-06T09:48:29Z</time>
      </trkpt>
      <trkpt lat="48.69847" lon="-0.60282">
        <ele>266.6</ele>
        <time>2013-10-06T09:48:31Z</time>
      </trkpt>
      <trkpt lat="48.69853" lon="-0.60288">
        <ele>265.4</ele>
        <time>2013-10-06T09:48:34Z</time>
      </trkpt>
      <trkpt lat="48.69864" lon="-0.60312">
        <ele>264.4</ele>
        <time>2013-10-06T09:48:40Z</time>
      </trkpt>
      <trkpt lat="48.69886" lon="-0.6036">
        <ele>263.4</ele>
        <time>2013-10-06T09:48:51Z</time>
      </trkpt>
      <trkpt lat="48.69896" lon="-0.60395">
        <ele>262.6</ele>
        <time>2013-10-06T09:48:58Z</time>
      </trkpt>
      <trkpt lat="48.69907" lon="-0.60423">
        <ele>262</ele>
        <time>2013-10-06T09:49:03Z</time>
      </trkpt>
      <trkpt lat="48.69919" lon="-0.60465">
        <ele>260.2</ele>
        <time>2013-10-06T09:49:15Z</time>
      </trkpt>
      <trkpt lat="48.6992" lon="-0.6047">
        <ele>260</ele>
        <time>2013-10-06T09:49:17Z</time>
      </trkpt>
      <trkpt lat="48.69935" lon="-0.60516">
        <ele>258.6</ele>
        <time>2013-10-06T09:49:30Z</time>
      </trkpt>
      <trkpt lat="48.69949" lon="-0.60558">
        <ele>258</ele>
        <time>2013-10-06T09:49:40Z</time>
      </trkpt>
      <trkpt lat="48.69961" lon="-0.60594">
        <ele>259.6</ele>
        <time>2013-10-06T09:49:51Z</time>
      </trkpt>
      <trkpt lat="48.6997" lon="-0.60637">
        <ele>260.4</ele>
        <time>2013-10-06T09:50:02Z</time>
      </trkpt>
      <trkpt lat="48.69988" lon="-0.60691">
        <ele>262.8</ele>
        <time>2013-10-06T09:50:13Z</time>
      </trkpt>
      <trkpt lat="48.69992" lon="-0.60707">
        <ele>264.4</ele>
        <time>2013-10-06T09:50:20Z</time>
      </trkpt>
      <trkpt lat="48.69999" lon="-0.6073">
        <ele>265.4</ele>
        <time>2013-10-06T09:50:30Z</time>
      </trkpt>
      <trkpt lat="48.7001" lon="-0.60761">
        <ele>266.4</ele>
        <time>2013-10-06T09:50:44Z</time>
      </trkpt>
      <trkpt lat="48.70018" lon="-0.60796">
        <ele>266.8</ele>
        <time>2013-10-06T09:50:56Z</time>
      </trkpt>
      <trkpt lat="48.7002" lon="-0.60801">
        <ele>267</ele>
        <time>2013-10-06T09:51:02Z</time>
      </trkpt>
      <trkpt lat="48.70062" lon="-0.60924">
        <ele>267.6</ele>
        <time>2013-10-06T09:53:36Z</time>
      </trkpt>
      <trkpt lat="48.70078" lon="-0.60972">
        <ele>268</ele>
        <time>2013-10-06T09:53:52Z</time>
      </trkpt>
      <trkpt lat="48.70095" lon="-0.61016">
        <ele>268.6</ele>
        <time>2013-10-06T09:54:07Z</time>
      </trkpt>
      <trkpt lat="48.70116" lon="-0.61077">
        <ele>269.8</ele>
        <time>2013-10-06T09:54:21Z</time>
      </trkpt>
      <trkpt lat="48.7013" lon="-0.61124">
        <ele>271.4</ele>
        <time>2013-10-06T09:54:34Z</time>
      </trkpt>
      <trkpt lat="48.7014" lon="-0.61144">
        <ele>271.6</ele>
        <time>2013-10-06T09:54:43Z</time>
      </trkpt>
      <trkpt lat="48.70185" lon="-0.61117">
        <ele>270.6</ele>
        <time>2013-10-06T09:54:54Z</time>
      </trkpt>
      <trkpt lat="48.70238" lon="-0.61079">
        <ele>267.6</ele>
        <time>2013-10-06T09:55:01Z</time>
      </trkpt>
      <trkpt lat="48.70284" lon="-0.61045">
        <ele>264.2</ele>
        <time>2013-10-06T09:55:06Z</time>
      </trkpt>
      <trkpt lat="48.70326" lon="-0.61014">
        <ele>261.2</ele>
        <time>2013-10-06T09:55:10Z</time>
      </trkpt>
      <trkpt lat="48.70369" lon="-0.60983">
        <ele>257.6</ele>
        <time>2013-10-06T09:55:14Z</time>
      </trkpt>
      <trkpt lat="48.70398" lon="-0.60961">
        <ele>254.2</ele>
        <time>2013-10-06T09:55:17Z</time>
      </trkpt>
      <trkpt lat="48.70427" lon="-0.60939">
        <ele>251</ele>
        <time>2013-10-06T09:55:22Z</time>
      </trkpt>
      <trkpt lat="48.7043" lon="-0.60939">
        <ele>250.6</ele>
        <time>2013-10-06T09:55:23Z</time>
      </trkpt>
      <trkpt lat="48.70433" lon="-0.6094">
        <ele>250.2</ele>
        <time>2013-10-06T09:55:24Z</time>
      </trkpt>
      <trkpt lat="48.70435" lon="-0.60944">
        <ele>250</ele>
        <time>2013-10-06T09:55:25Z</time>
      </trkpt>
      <trkpt lat="48.70437" lon="-0.60949">
        <ele>249.6</ele>
        <time>2013-10-06T09:55:26Z</time>
      </trkpt>
      <trkpt lat="48.70439" lon="-0.60953">
        <ele>249.6</ele>
        <time>2013-10-06T09:55:27Z</time>
      </trkpt>
      <trkpt lat="48.70453" lon="-0.61002">
        <ele>248.8</ele>
        <time>2013-10-06T09:55:40Z</time>
      </trkpt>
      <trkpt lat="48.7047" lon="-0.61061">
        <ele>249.2</ele>
        <time>2013-10-06T09:55:53Z</time>
      </trkpt>
      <trkpt lat="48.70487" lon="-0.61113">
        <ele>249</ele>
        <time>2013-10-06T09:56:04Z</time>
      </trkpt>
      <trkpt lat="48.70509" lon="-0.61183">
        <ele>248.6</ele>
        <time>2013-10-06T09:56:16Z</time>
      </trkpt>
      <trkpt lat="48.7054" lon="-0.61282">
        <ele>248.6</ele>
        <time>2013-10-06T09:56:30Z</time>
      </trkpt>
      <trkpt lat="48.70544" lon="-0.61303">
        <ele>248.6</ele>
        <time>2013-10-06T09:56:33Z</time>
      </trkpt>
      <trkpt lat="48.70553" lon="-0.61336">
        <ele>249</ele>
        <time>2013-10-06T09:56:38Z</time>
      </trkpt>
      <trkpt lat="48.7056" lon="-0.61359">
        <ele>249.8</ele>
        <time>2013-10-06T09:56:42Z</time>
      </trkpt>
      <trkpt lat="48.70572" lon="-0.61396">
        <ele>250.6</ele>
        <time>2013-10-06T09:56:49Z</time>
      </trkpt>
      <trkpt lat="48.70581" lon="-0.61426">
        <ele>250.8</ele>
        <time>2013-10-06T09:56:53Z</time>
      </trkpt>
      <trkpt lat="48.70603" lon="-0.61507">
        <ele>249.4</ele>
        <time>2013-10-06T09:57:05Z</time>
      </trkpt>
      <trkpt lat="48.70624" lon="-0.6157">
        <ele>247.8</ele>
        <time>2013-10-06T09:57:17Z</time>
      </trkpt>
      <trkpt lat="48.70637" lon="-0.61581">
        <ele>247.4</ele>
        <time>2013-10-06T09:57:21Z</time>
      </trkpt>
      <trkpt lat="48.70687" lon="-0.61571">
        <ele>247.8</ele>
        <time>2013-10-06T09:57:32Z</time>
      </trkpt>
      <trkpt lat="48.70718" lon="-0.61561">
        <ele>249</ele>
        <time>2013-10-06T09:57:39Z</time>
      </trkpt>
      <trkpt lat="48.70747" lon="-0.61552">
        <ele>249.2</ele>
        <time>2013-10-06T09:57:47Z</time>
      </trkpt>
      <trkpt lat="48.70797" lon="-0.61532">
        <ele>247.2</ele>
        <time>2013-10-06T09:57:59Z</time>
      </trkpt>
      <trkpt lat="48.7085" lon="-0.61516">
        <ele>245.6</ele>
        <time>2013-10-06T09:58:11Z</time>
      </trkpt>
      <trkpt lat="48.70907" lon="-0.61494">
        <ele>245.6</ele>
        <time>2013-10-06T09:58:23Z</time>
      </trkpt>
      <trkpt lat="48.70931" lon="-0.61479">
        <ele>245.6</ele>
        <time>2013-10-06T09:58:28Z</time>
      </trkpt>
      <trkpt lat="48.70949" lon="-0.61468">
        <ele>245.6</ele>
        <time>2013-10-06T09:58:32Z</time>
      </trkpt>
      <trkpt lat="48.7103" lon="-0.6141">
        <ele>248</ele>
        <time>2013-10-06T09:58:48Z</time>
      </trkpt>
      <trkpt lat="48.71066" lon="-0.61387">
        <ele>249</ele>
        <time>2013-10-06T09:58:57Z</time>
      </trkpt>
      <trkpt lat="48.71074" lon="-0.6139">
        <ele>249.4</ele>
        <time>2013-10-06T09:59:00Z</time>
      </trkpt>
      <trkpt lat="48.71079" lon="-0.61401">
        <ele>250.4</ele>
        <time>2013-10-06T09:59:10Z</time>
      </trkpt>
      <trkpt lat="48.7108" lon="-0.61406">
        <ele>250.8</ele>
        <time>2013-10-06T09:59:31Z</time>
      </trkpt>
      <trkpt lat="48.71095" lon="-0.61453">
        <ele>251</ele>
        <time>2013-10-06T09:59:43Z</time>
      </trkpt>
      <trkpt lat="48.7111" lon="-0.61502">
        <ele>250.6</ele>
        <time>2013-10-06T09:59:55Z</time>
      </trkpt>
      <trkpt lat="48.71126" lon="-0.61548">
        <ele>248.8</ele>
        <time>2013-10-06T10:00:06Z</time>
      </trkpt>
      <trkpt lat="48.71154" lon="-0.61545">
        <ele>248.2</ele>
        <time>2013-10-06T10:00:16Z</time>
      </trkpt>
      <trkpt lat="48.71202" lon="-0.61534">
        <ele>250.8</ele>
        <time>2013-10-06T10:00:30Z</time>
      </trkpt>
      <trkpt lat="48.71243" lon="-0.61528">
        <ele>253.8</ele>
        <time>2013-10-06T10:00:43Z</time>
      </trkpt>
      <trkpt lat="48.71282" lon="-0.61523">
        <ele>254.8</ele>
        <time>2013-10-06T10:00:57Z</time>
      </trkpt>
      <trkpt lat="48.71318" lon="-0.61517">
        <ele>254.2</ele>
        <time>2013-10-06T10:01:09Z</time>
      </trkpt>
      <trkpt lat="48.71352" lon="-0.61515">
        <ele>254.4</ele>
        <time>2013-10-06T10:01:19Z</time>
      </trkpt>
      <trkpt lat="48.71378" lon="-0.61514">
        <ele>254.2</ele>
        <time>2013-10-06T10:01:27Z</time>
      </trkpt>
      <trkpt lat="48.7138" lon="-0.61512">
        <ele>254.2</ele>
        <time>2013-10-06T10:01:28Z</time>
      </trkpt>
      <trkpt lat="48.71382" lon="-0.6151">
        <ele>254.2</ele>
        <time>2013-10-06T10:01:29Z</time>
      </trkpt>
      <trkpt lat="48.71383" lon="-0.61506">
        <ele>254.2</ele>
        <time>2013-10-06T10:01:30Z</time>
      </trkpt>
      <trkpt lat="48.71384" lon="-0.61502">
        <ele>254.2</ele>
        <time>2013-10-06T10:01:31Z</time>
      </trkpt>
      <trkpt lat="48.71394" lon="-0.6149">
        <ele>254.2</ele>
        <time>2013-10-06T10:01:34Z</time>
      </trkpt>
      <trkpt lat="48.71399" lon="-0.61485">
        <ele>254.2</ele>
        <time>2013-10-06T10:01:35Z</time>
      </trkpt>
      <trkpt lat="48.71404" lon="-0.61483">
        <ele>254.4</ele>
        <time>2013-10-06T10:01:36Z</time>
      </trkpt>
      <trkpt lat="48.71409" lon="-0.61483">
        <ele>254.4</ele>
        <time>2013-10-06T10:01:37Z</time>
      </trkpt>
      <trkpt lat="48.71417" lon="-0.6148">
        <ele>255</ele>
        <time>2013-10-06T10:01:39Z</time>
      </trkpt>
      <trkpt lat="48.7147" lon="-0.61466">
        <ele>256.4</ele>
        <time>2013-10-06T10:01:54Z</time>
      </trkpt>
      <trkpt lat="48.71509" lon="-0.61454">
        <ele>257.2</ele>
        <time>2013-10-06T10:02:06Z</time>
      </trkpt>
      <trkpt lat="48.71535" lon="-0.61455">
        <ele>257.6</ele>
        <time>2013-10-06T10:02:18Z</time>
      </trkpt>
      <trkpt lat="48.71576" lon="-0.61464">
        <ele>256.8</ele>
        <time>2013-10-06T10:02:31Z</time>
      </trkpt>
      <trkpt lat="48.71632" lon="-0.61474">
        <ele>254.6</ele>
        <time>2013-10-06T10:02:44Z</time>
      </trkpt>
      <trkpt lat="48.71695" lon="-0.61472">
        <ele>252</ele>
        <time>2013-10-06T10:02:55Z</time>
      </trkpt>
      <trkpt lat="48.71731" lon="-0.61461">
        <ele>248.6</ele>
        <time>2013-10-06T10:03:00Z</time>
      </trkpt>
      <trkpt lat="48.71794" lon="-0.61436">
        <ele>245.4</ele>
        <time>2013-10-06T10:03:09Z</time>
      </trkpt>
      <trkpt lat="48.71808" lon="-0.61434">
        <ele>244.6</ele>
        <time>2013-10-06T10:03:11Z</time>
      </trkpt>
      <trkpt lat="48.71861" lon="-0.61391">
        <ele>241.8</ele>
        <time>2013-10-06T10:03:21Z</time>
      </trkpt>
      <trkpt lat="48.71904" lon="-0.61361">
        <ele>241</ele>
        <time>2013-10-06T10:03:29Z</time>
      </trkpt>
      <trkpt lat="48.71908" lon="-0.61357">
        <ele>240.8</ele>
        <time>2013-10-06T10:03:30Z</time>
      </trkpt>
      <trkpt lat="48.71911" lon="-0.61352">
        <ele>240.8</ele>
        <time>2013-10-06T10:03:31Z</time>
      </trkpt>
      <trkpt lat="48.71912" lon="-0.61347">
        <ele>240.8</ele>
        <time>2013-10-06T10:03:32Z</time>
      </trkpt>
      <trkpt lat="48.71915" lon="-0.61341">
        <ele>240.8</ele>
        <time>2013-10-06T10:03:33Z</time>
      </trkpt>
      <trkpt lat="48.71917" lon="-0.61333">
        <ele>240.6</ele>
        <time>2013-10-06T10:03:34Z</time>
      </trkpt>
      <trkpt lat="48.71938" lon="-0.61282">
        <ele>240</ele>
        <time>2013-10-06T10:03:40Z</time>
      </trkpt>
      <trkpt lat="48.71946" lon="-0.61267">
        <ele>239.6</ele>
        <time>2013-10-06T10:03:42Z</time>
      </trkpt>
      <trkpt lat="48.72" lon="-0.61205">
        <ele>236.2</ele>
        <time>2013-10-06T10:03:51Z</time>
      </trkpt>
      <trkpt lat="48.72043" lon="-0.61154">
        <ele>232.4</ele>
        <time>2013-10-06T10:03:58Z</time>
      </trkpt>
      <trkpt lat="48.7208" lon="-0.61107">
        <ele>229</ele>
        <time>2013-10-06T10:04:04Z</time>
      </trkpt>
      <trkpt lat="48.721" lon="-0.61086">
        <ele>227.4</ele>
        <time>2013-10-06T10:04:07Z</time>
      </trkpt>
      <trkpt lat="48.72131" lon="-0.61054">
        <ele>223.6</ele>
        <time>2013-10-06T10:04:14Z</time>
      </trkpt>
      <trkpt lat="48.72134" lon="-0.61051">
        <ele>223</ele>
        <time>2013-10-06T10:04:16Z</time>
      </trkpt>
      <trkpt lat="48.72146" lon="-0.61035">
        <ele>221.8</ele>
        <time>2013-10-06T10:04:22Z</time>
      </trkpt>
      <trkpt lat="48.7215" lon="-0.61031">
        <ele>221.6</ele>
        <time>2013-10-06T10:04:23Z</time>
      </trkpt>
      <trkpt lat="48.72212" lon="-0.60955">
        <ele>218.8</ele>
        <time>2013-10-06T10:04:37Z</time>
      </trkpt>
      <trkpt lat="48.72264" lon="-0.60864">
        <ele>215.6</ele>
        <time>2013-10-06T10:04:50Z</time>
      </trkpt>
      <trkpt lat="48.72272" lon="-0.60849">
        <ele>215.2</ele>
        <time>2013-10-06T10:04:52Z</time>
      </trkpt>
      <trkpt lat="48.72276" lon="-0.60843">
        <ele>215</ele>
        <time>2013-10-06T10:04:53Z</time>
      </trkpt>
      <trkpt lat="48.7229" lon="-0.60818">
        <ele>214.2</ele>
        <time>2013-10-06T10:04:57Z</time>
      </trkpt>
      <trkpt lat="48.7234" lon="-0.60749">
        <ele>212.6</ele>
        <time>2013-10-06T10:05:08Z</time>
      </trkpt>
      <trkpt lat="48.7238" lon="-0.60696">
        <ele>211.4</ele>
        <time>2013-10-06T10:05:15Z</time>
      </trkpt>
      <trkpt lat="48.72384" lon="-0.60688">
        <ele>211.4</ele>
        <time>2013-10-06T10:05:16Z</time>
      </trkpt>
      <trkpt lat="48.72426" lon="-0.60563">
        <ele>211.2</ele>
        <time>2013-10-06T10:05:30Z</time>
      </trkpt>
      <trkpt lat="48.7246" lon="-0.6046">
        <ele>211</ele>
        <time>2013-10-06T10:05:42Z</time>
      </trkpt>
      <trkpt lat="48.72471" lon="-0.60435">
        <ele>210.8</ele>
        <time>2013-10-06T10:05:45Z</time>
      </trkpt>
      <trkpt lat="48.72534" lon="-0.60331">
        <ele>207.6</ele>
        <time>2013-10-06T10:05:56Z</time>
      </trkpt>
      <trkpt lat="48.72541" lon="-0.60323">
        <ele>207.4</ele>
        <time>2013-10-06T10:05:57Z</time>
      </trkpt>
      <trkpt lat="48.72602" lon="-0.60246">
        <ele>204.4</ele>
        <time>2013-10-06T10:06:06Z</time>
      </trkpt>
      <trkpt lat="48.72672" lon="-0.60161">
        <ele>201.2</ele>
        <time>2013-10-06T10:06:16Z</time>
      </trkpt>
      <trkpt lat="48.72744" lon="-0.60093">
        <ele>198</ele>
        <time>2013-10-06T10:06:26Z</time>
      </trkpt>
      <trkpt lat="48.72831" lon="-0.60014">
        <ele>196.6</ele>
        <time>2013-10-06T10:06:39Z</time>
      </trkpt>
      <trkpt lat="48.72915" lon="-0.59937">
        <ele>195.2</ele>
        <time>2013-10-06T10:06:52Z</time>
      </trkpt>
      <trkpt lat="48.73" lon="-0.59851">
        <ele>194.2</ele>
        <time>2013-10-06T10:07:07Z</time>
      </trkpt>
      <trkpt lat="48.73061" lon="-0.59767">
        <ele>193</ele>
        <time>2013-10-06T10:07:19Z</time>
      </trkpt>
      <trkpt lat="48.73073" lon="-0.59743">
        <ele>192.8</ele>
        <time>2013-10-06T10:07:22Z</time>
      </trkpt>
      <trkpt lat="48.73129" lon="-0.59645">
        <ele>192</ele>
        <time>2013-10-06T10:07:35Z</time>
      </trkpt>
      <trkpt lat="48.73189" lon="-0.59542">
        <ele>190.6</ele>
        <time>2013-10-06T10:07:49Z</time>
      </trkpt>
      <trkpt lat="48.73198" lon="-0.59527">
        <ele>190.4</ele>
        <time>2013-10-06T10:07:51Z</time>
      </trkpt>
      <trkpt lat="48.73202" lon="-0.5952">
        <ele>190.4</ele>
        <time>2013-10-06T10:07:52Z</time>
      </trkpt>
      <trkpt lat="48.73287" lon="-0.59434">
        <ele>190</ele>
        <time>2013-10-06T10:08:08Z</time>
      </trkpt>
      <trkpt lat="48.73299" lon="-0.59428">
        <ele>190</ele>
        <time>2013-10-06T10:08:10Z</time>
      </trkpt>
      <trkpt lat="48.73306" lon="-0.59426">
        <ele>190</ele>
        <time>2013-10-06T10:08:11Z</time>
      </trkpt>
      <trkpt lat="48.73312" lon="-0.59425">
        <ele>189.8</ele>
        <time>2013-10-06T10:08:12Z</time>
      </trkpt>
      <trkpt lat="48.73319" lon="-0.59425">
        <ele>189.8</ele>
        <time>2013-10-06T10:08:13Z</time>
      </trkpt>
      <trkpt lat="48.73325" lon="-0.59426">
        <ele>189.8</ele>
        <time>2013-10-06T10:08:14Z</time>
      </trkpt>
      <trkpt lat="48.73332" lon="-0.59428">
        <ele>189.8</ele>
        <time>2013-10-06T10:08:15Z</time>
      </trkpt>
      <trkpt lat="48.73339" lon="-0.59429">
        <ele>189.6</ele>
        <time>2013-10-06T10:08:16Z</time>
      </trkpt>
      <trkpt lat="48.73345" lon="-0.59429">
        <ele>189.6</ele>
        <time>2013-10-06T10:08:17Z</time>
      </trkpt>
      <trkpt lat="48.73359" lon="-0.59429">
        <ele>189.6</ele>
        <time>2013-10-06T10:08:19Z</time>
      </trkpt>
      <trkpt lat="48.73366" lon="-0.59427">
        <ele>189.6</ele>
        <time>2013-10-06T10:08:20Z</time>
      </trkpt>
      <trkpt lat="48.73372" lon="-0.59425">
        <ele>189.4</ele>
        <time>2013-10-06T10:08:21Z</time>
      </trkpt>
      <trkpt lat="48.7345" lon="-0.59378">
        <ele>188.4</ele>
        <time>2013-10-06T10:08:34Z</time>
      </trkpt>
      <trkpt lat="48.73536" lon="-0.5931">
        <ele>187.2</ele>
        <time>2013-10-06T10:08:48Z</time>
      </trkpt>
      <trkpt lat="48.73617" lon="-0.59259">
        <ele>186.2</ele>
        <time>2013-10-06T10:09:01Z</time>
      </trkpt>
      <trkpt lat="48.73636" lon="-0.59247">
        <ele>186</ele>
        <time>2013-10-06T10:09:04Z</time>
      </trkpt>
      <trkpt lat="48.73641" lon="-0.59242">
        <ele>186</ele>
        <time>2013-10-06T10:09:05Z</time>
      </trkpt>
      <trkpt lat="48.73647" lon="-0.59235">
        <ele>185.8</ele>
        <time>2013-10-06T10:09:06Z</time>
      </trkpt>
      <trkpt lat="48.73652" lon="-0.59227">
        <ele>185.8</ele>
        <time>2013-10-06T10:09:07Z</time>
      </trkpt>
      <trkpt lat="48.73657" lon="-0.59219">
        <ele>185.6</ele>
        <time>2013-10-06T10:09:08Z</time>
      </trkpt>
      <trkpt lat="48.73661" lon="-0.5921">
        <ele>185.4</ele>
        <time>2013-10-06T10:09:09Z</time>
      </trkpt>
      <trkpt lat="48.73665" lon="-0.59201">
        <ele>185.4</ele>
        <time>2013-10-06T10:09:10Z</time>
      </trkpt>
      <trkpt lat="48.73729" lon="-0.59071">
        <ele>183</ele>
        <time>2013-10-06T10:09:25Z</time>
      </trkpt>
      <trkpt lat="48.73798" lon="-0.58945">
        <ele>180.6</ele>
        <time>2013-10-06T10:09:39Z</time>
      </trkpt>
      <trkpt lat="48.73819" lon="-0.58915">
        <ele>180</ele>
        <time>2013-10-06T10:09:43Z</time>
      </trkpt>
      <trkpt lat="48.73825" lon="-0.58909">
        <ele>180</ele>
        <time>2013-10-06T10:09:44Z</time>
      </trkpt>
      <trkpt lat="48.73866" lon="-0.58876">
        <ele>179.4</ele>
        <time>2013-10-06T10:09:51Z</time>
      </trkpt>
      <trkpt lat="48.7387" lon="-0.58869">
        <ele>179.4</ele>
        <time>2013-10-06T10:09:52Z</time>
      </trkpt>
      <trkpt lat="48.73914" lon="-0.58807">
        <ele>180</ele>
        <time>2013-10-06T10:10:02Z</time>
      </trkpt>
      <trkpt lat="48.7392" lon="-0.58804">
        <ele>180.2</ele>
        <time>2013-10-06T10:10:03Z</time>
      </trkpt>
      <trkpt lat="48.73926" lon="-0.58802">
        <ele>180.4</ele>
        <time>2013-10-06T10:10:04Z</time>
      </trkpt>
      <trkpt lat="48.73933" lon="-0.58801">
        <ele>180.6</ele>
        <time>2013-10-06T10:10:05Z</time>
      </trkpt>
      <trkpt lat="48.73939" lon="-0.58802">
        <ele>180.6</ele>
        <time>2013-10-06T10:10:06Z</time>
      </trkpt>
      <trkpt lat="48.73945" lon="-0.58801">
        <ele>180.8</ele>
        <time>2013-10-06T10:10:07Z</time>
      </trkpt>
      <trkpt lat="48.7395" lon="-0.58798">
        <ele>180.8</ele>
        <time>2013-10-06T10:10:08Z</time>
      </trkpt>
      <trkpt lat="48.73955" lon="-0.58793">
        <ele>181</ele>
        <time>2013-10-06T10:10:09Z</time>
      </trkpt>
      <trkpt lat="48.73966" lon="-0.58781">
        <ele>181.4</ele>
        <time>2013-10-06T10:10:12Z</time>
      </trkpt>
      <trkpt lat="48.73985" lon="-0.58766">
        <ele>182</ele>
        <time>2013-10-06T10:10:18Z</time>
      </trkpt>
      <trkpt lat="48.73989" lon="-0.58767">
        <ele>182</ele>
        <time>2013-10-06T10:10:19Z</time>
      </trkpt>
      <trkpt lat="48.73993" lon="-0.5877">
        <ele>182.2</ele>
        <time>2013-10-06T10:10:20Z</time>
      </trkpt>
      <trkpt lat="48.74026" lon="-0.58782">
        <ele>183.6</ele>
        <time>2013-10-06T10:10:30Z</time>
      </trkpt>
      <trkpt lat="48.74037" lon="-0.58777">
        <ele>184</ele>
        <time>2013-10-06T10:10:33Z</time>
      </trkpt>
      <trkpt lat="48.74041" lon="-0.58775">
        <ele>184.2</ele>
        <time>2013-10-06T10:10:34Z</time>
      </trkpt>
      <trkpt lat="48.74045" lon="-0.58772">
        <ele>184.4</ele>
        <time>2013-10-06T10:10:35Z</time>
      </trkpt>
      <trkpt lat="48.74048" lon="-0.58769">
        <ele>184.4</ele>
        <time>2013-10-06T10:10:36Z</time>
      </trkpt>
      <trkpt lat="48.74051" lon="-0.58766">
        <ele>184.6</ele>
        <time>2013-10-06T10:10:37Z</time>
      </trkpt>
      <trkpt lat="48.74083" lon="-0.58725">
        <ele>185.4</ele>
        <time>2013-10-06T10:10:50Z</time>
      </trkpt>
      <trkpt lat="48.74129" lon="-0.58662">
        <ele>185.4</ele>
        <time>2013-10-06T10:11:08Z</time>
      </trkpt>
      <trkpt lat="48.74176" lon="-0.58598">
        <ele>185.8</ele>
        <time>2013-10-06T10:11:25Z</time>
      </trkpt>
      <trkpt lat="48.74198" lon="-0.5857">
        <ele>185.8</ele>
        <time>2013-10-06T10:11:32Z</time>
      </trkpt>
      <trkpt lat="48.74234" lon="-0.5851">
        <ele>186</ele>
        <time>2013-10-06T10:11:45Z</time>
      </trkpt>
      <trkpt lat="48.74289" lon="-0.58395">
        <ele>185.2</ele>
        <time>2013-10-06T10:12:02Z</time>
      </trkpt>
      <trkpt lat="48.74356" lon="-0.58251">
        <ele>183.4</ele>
        <time>2013-10-06T10:12:20Z</time>
      </trkpt>
      <trkpt lat="48.74429" lon="-0.58102">
        <ele>182.2</ele>
        <time>2013-10-06T10:12:39Z</time>
      </trkpt>
      <trkpt lat="48.74478" lon="-0.57989">
        <ele>181.8</ele>
        <time>2013-10-06T10:12:53Z</time>
      </trkpt>
      <trkpt lat="48.74529" lon="-0.57859">
        <ele>181.4</ele>
        <time>2013-10-06T10:13:09Z</time>
      </trkpt>
      <trkpt lat="48.74577" lon="-0.57733">
        <ele>181</ele>
        <time>2013-10-06T10:13:26Z</time>
      </trkpt>
      <trkpt lat="48.74593" lon="-0.57687">
        <ele>180.8</ele>
        <time>2013-10-06T10:13:36Z</time>
      </trkpt>
      <trkpt lat="48.74607" lon="-0.57657">
        <ele>180.6</ele>
        <time>2013-10-06T10:13:42Z</time>
      </trkpt>
      <trkpt lat="48.74611" lon="-0.5765">
        <ele>180.6</ele>
        <time>2013-10-06T10:13:43Z</time>
      </trkpt>
      <trkpt lat="48.74614" lon="-0.57643">
        <ele>180.6</ele>
        <time>2013-10-06T10:13:44Z</time>
      </trkpt>
      <trkpt lat="48.7464" lon="-0.57577">
        <ele>181.2</ele>
        <time>2013-10-06T10:13:54Z</time>
      </trkpt>
      <trkpt lat="48.74653" lon="-0.57541">
        <ele>180.4</ele>
        <time>2013-10-06T10:13:59Z</time>
      </trkpt>
      <trkpt lat="48.74673" lon="-0.57485">
        <ele>179.6</ele>
        <time>2013-10-06T10:14:08Z</time>
      </trkpt>
      <trkpt lat="48.74678" lon="-0.57472">
        <ele>179.4</ele>
        <time>2013-10-06T10:14:10Z</time>
      </trkpt>
      <trkpt lat="48.74683" lon="-0.57453">
        <ele>179.2</ele>
        <time>2013-10-06T10:14:13Z</time>
      </trkpt>
      <trkpt lat="48.74699" lon="-0.57407">
        <ele>178.4</ele>
        <time>2013-10-06T10:14:20Z</time>
      </trkpt>
      <trkpt lat="48.74702" lon="-0.574">
        <ele>178.4</ele>
        <time>2013-10-06T10:14:21Z</time>
      </trkpt>
      <trkpt lat="48.74714" lon="-0.57373">
        <ele>177.6</ele>
        <time>2013-10-06T10:14:25Z</time>
      </trkpt>
      <trkpt lat="48.74716" lon="-0.57366">
        <ele>177.4</ele>
        <time>2013-10-06T10:14:26Z</time>
      </trkpt>
      <trkpt lat="48.74757" lon="-0.5726">
        <ele>174.8</ele>
        <time>2013-10-06T10:14:41Z</time>
      </trkpt>
      <trkpt lat="48.7478" lon="-0.57206">
        <ele>173.2</ele>
        <time>2013-10-06T10:14:52Z</time>
      </trkpt>
      <trkpt lat="48.74782" lon="-0.57202">
        <ele>172.8</ele>
        <time>2013-10-06T10:14:57Z</time>
      </trkpt>
      <trkpt lat="48.74783" lon="-0.57223">
        <ele>172.6</ele>
        <time>2013-10-06T10:27:10Z</time>
      </trkpt>
      <trkpt lat="48.7479" lon="-0.57198">
        <ele>172.6</ele>
        <time>2013-10-06T10:27:15Z</time>
      </trkpt>
      <trkpt lat="48.74791" lon="-0.57192">
        <ele>172.6</ele>
        <time>2013-10-06T10:27:16Z</time>
      </trkpt>
      <trkpt lat="48.74793" lon="-0.57188">
        <ele>172.6</ele>
        <time>2013-10-06T10:27:17Z</time>
      </trkpt>
      <trkpt lat="48.74795" lon="-0.57182">
        <ele>172.6</ele>
        <time>2013-10-06T10:27:18Z</time>
      </trkpt>
      <trkpt lat="48.74805" lon="-0.57149">
        <ele>172.6</ele>
        <time>2013-10-06T10:27:28Z</time>
      </trkpt>
      <trkpt lat="48.74803" lon="-0.57141">
        <ele>172.8</ele>
        <time>2013-10-06T10:27:38Z</time>
      </trkpt>
      <trkpt lat="48.74805" lon="-0.57119">
        <ele>173</ele>
        <time>2013-10-06T10:27:44Z</time>
      </trkpt>
      <trkpt lat="48.74797" lon="-0.57108">
        <ele>173.4</ele>
        <time>2013-10-06T10:27:47Z</time>
      </trkpt>
      <trkpt lat="48.74792" lon="-0.57103">
        <ele>173.4</ele>
        <time>2013-10-06T10:27:48Z</time>
      </trkpt>
      <trkpt lat="48.74786" lon="-0.57099">
        <ele>173.4</ele>
        <time>2013-10-06T10:27:49Z</time>
      </trkpt>
      <trkpt lat="48.74781" lon="-0.57095">
        <ele>173.4</ele>
        <time>2013-10-06T10:27:50Z</time>
      </trkpt>
      <trkpt lat="48.74776" lon="-0.57092">
        <ele>173.4</ele>
        <time>2013-10-06T10:27:51Z</time>
      </trkpt>
      <trkpt lat="48.74771" lon="-0.57087">
        <ele>173.4</ele>
        <time>2013-10-06T10:27:52Z</time>
      </trkpt>
      <trkpt lat="48.74767" lon="-0.57081">
        <ele>173.4</ele>
        <time>2013-10-06T10:27:53Z</time>
      </trkpt>
      <trkpt lat="48.74752" lon="-0.57065">
        <ele>173</ele>
        <time>2013-10-06T10:27:56Z</time>
      </trkpt>
      <trkpt lat="48.74747" lon="-0.57054">
        <ele>172.8</ele>
        <time>2013-10-06T10:27:58Z</time>
      </trkpt>
      <trkpt lat="48.74745" lon="-0.57028">
        <ele>173</ele>
        <time>2013-10-06T10:28:08Z</time>
      </trkpt>
      <trkpt lat="48.74747" lon="-0.57008">
        <ele>173.4</ele>
        <time>2013-10-06T10:28:14Z</time>
      </trkpt>
      <trkpt lat="48.7476" lon="-0.56984">
        <ele>174</ele>
        <time>2013-10-06T10:28:18Z</time>
      </trkpt>
      <trkpt lat="48.74764" lon="-0.56978">
        <ele>174</ele>
        <time>2013-10-06T10:28:19Z</time>
      </trkpt>
      <trkpt lat="48.74769" lon="-0.56974">
        <ele>174.2</ele>
        <time>2013-10-06T10:28:20Z</time>
      </trkpt>
      <trkpt lat="48.74773" lon="-0.5697">
        <ele>174.6</ele>
        <time>2013-10-06T10:28:21Z</time>
      </trkpt>
      <trkpt lat="48.74777" lon="-0.56967">
        <ele>174.8</ele>
        <time>2013-10-06T10:28:22Z</time>
      </trkpt>
      <trkpt lat="48.74782" lon="-0.56963">
        <ele>175</ele>
        <time>2013-10-06T10:28:23Z</time>
      </trkpt>
      <trkpt lat="48.74787" lon="-0.56961">
        <ele>175.2</ele>
        <time>2013-10-06T10:28:24Z</time>
      </trkpt>
      <trkpt lat="48.74791" lon="-0.56958">
        <ele>175.2</ele>
        <time>2013-10-06T10:28:25Z</time>
      </trkpt>
      <trkpt lat="48.74833" lon="-0.56926">
        <ele>177.6</ele>
        <time>2013-10-06T10:28:35Z</time>
      </trkpt>
      <trkpt lat="48.74852" lon="-0.56901">
        <ele>179.4</ele>
        <time>2013-10-06T10:28:46Z</time>
      </trkpt>
      <trkpt lat="48.74864" lon="-0.56895">
        <ele>179.6</ele>
        <time>2013-10-06T10:28:56Z</time>
      </trkpt>
      <trkpt lat="48.74886" lon="-0.56843">
        <ele>180.2</ele>
        <time>2013-10-06T10:29:11Z</time>
      </trkpt>
      <trkpt lat="48.74916" lon="-0.56786">
        <ele>183.4</ele>
        <time>2013-10-06T10:29:18Z</time>
      </trkpt>
      <trkpt lat="48.74922" lon="-0.56777">
        <ele>184</ele>
        <time>2013-10-06T10:29:19Z</time>
      </trkpt>
      <trkpt lat="48.74952" lon="-0.56724">
        <ele>186.8</ele>
        <time>2013-10-06T10:29:25Z</time>
      </trkpt>
      <trkpt lat="48.74984" lon="-0.56682">
        <ele>189</ele>
        <time>2013-10-06T10:29:30Z</time>
      </trkpt>
      <trkpt lat="48.74989" lon="-0.56677">
        <ele>189.2</ele>
        <time>2013-10-06T10:29:31Z</time>
      </trkpt>
      <trkpt lat="48.74992" lon="-0.56674">
        <ele>189.6</ele>
        <time>2013-10-06T10:29:32Z</time>
      </trkpt>
      <trkpt lat="48.74995" lon="-0.56668">
        <ele>190.6</ele>
        <time>2013-10-06T10:29:36Z</time>
      </trkpt>
      <trkpt lat="48.74995" lon="-0.56664">
        <ele>191</ele>
        <time>2013-10-06T10:29:37Z</time>
      </trkpt>
      <trkpt lat="48.74996" lon="-0.56658">
        <ele>191.2</ele>
        <time>2013-10-06T10:29:38Z</time>
      </trkpt>
      <trkpt lat="48.75001" lon="-0.56631">
        <ele>191.8</ele>
        <time>2013-10-06T10:29:41Z</time>
      </trkpt>
      <trkpt lat="48.75005" lon="-0.566">
        <ele>192.4</ele>
        <time>2013-10-06T10:29:44Z</time>
      </trkpt>
      <trkpt lat="48.75009" lon="-0.56441">
        <ele>195.8</ele>
        <time>2013-10-06T10:29:56Z</time>
      </trkpt>
      <trkpt lat="48.75013" lon="-0.56412">
        <ele>196.6</ele>
        <time>2013-10-06T10:29:58Z</time>
      </trkpt>
      <trkpt lat="48.75019" lon="-0.56282">
        <ele>199.4</ele>
        <time>2013-10-06T10:30:10Z</time>
      </trkpt>
      <trkpt lat="48.7503" lon="-0.56261">
        <ele>199.8</ele>
        <time>2013-10-06T10:30:17Z</time>
      </trkpt>
      <trkpt lat="48.75027" lon="-0.56244">
        <ele>200</ele>
        <time>2013-10-06T10:30:20Z</time>
      </trkpt>
      <trkpt lat="48.75029" lon="-0.56124">
        <ele>200.8</ele>
        <time>2013-10-06T10:30:32Z</time>
      </trkpt>
      <trkpt lat="48.75036" lon="-0.56052">
        <ele>201.2</ele>
        <time>2013-10-06T10:30:41Z</time>
      </trkpt>
      <trkpt lat="48.75039" lon="-0.56034">
        <ele>201.4</ele>
        <time>2013-10-06T10:30:49Z</time>
      </trkpt>
      <trkpt lat="48.7504" lon="-0.56035">
        <ele>201.6</ele>
        <time>2013-10-06T10:30:53Z</time>
      </trkpt>
      <trkpt lat="48.75045" lon="-0.56003">
        <ele>201.8</ele>
        <time>2013-10-06T10:31:06Z</time>
      </trkpt>
      <trkpt lat="48.75048" lon="-0.55994">
        <ele>201.8</ele>
        <time>2013-10-06T10:31:07Z</time>
      </trkpt>
      <trkpt lat="48.75057" lon="-0.55891">
        <ele>202.4</ele>
        <time>2013-10-06T10:31:19Z</time>
      </trkpt>
      <trkpt lat="48.75064" lon="-0.55826">
        <ele>203.2</ele>
        <time>2013-10-06T10:31:29Z</time>
      </trkpt>
      <trkpt lat="48.75071" lon="-0.5569">
        <ele>204.6</ele>
        <time>2013-10-06T10:31:40Z</time>
      </trkpt>
      <trkpt lat="48.75079" lon="-0.55489">
        <ele>206.8</ele>
        <time>2013-10-06T10:31:53Z</time>
      </trkpt>
      <trkpt lat="48.75093" lon="-0.55256">
        <ele>209.6</ele>
        <time>2013-10-06T10:32:08Z</time>
      </trkpt>
      <trkpt lat="48.75099" lon="-0.55081">
        <ele>211.6</ele>
        <time>2013-10-06T10:32:20Z</time>
      </trkpt>
      <trkpt lat="48.75095" lon="-0.55019">
        <ele>212</ele>
        <time>2013-10-06T10:32:26Z</time>
      </trkpt>
      <trkpt lat="48.7509" lon="-0.55014">
        <ele>212.2</ele>
        <time>2013-10-06T10:32:27Z</time>
      </trkpt>
      <trkpt lat="48.75087" lon="-0.55008">
        <ele>212.4</ele>
        <time>2013-10-06T10:32:28Z</time>
      </trkpt>
      <trkpt lat="48.75085" lon="-0.55002">
        <ele>212.4</ele>
        <time>2013-10-06T10:32:29Z</time>
      </trkpt>
      <trkpt lat="48.75085" lon="-0.54996">
        <ele>212.6</ele>
        <time>2013-10-06T10:32:30Z</time>
      </trkpt>
      <trkpt lat="48.75087" lon="-0.54989">
        <ele>212.6</ele>
        <time>2013-10-06T10:32:31Z</time>
      </trkpt>
      <trkpt lat="48.7509" lon="-0.54985">
        <ele>212.6</ele>
        <time>2013-10-06T10:32:32Z</time>
      </trkpt>
      <trkpt lat="48.75096" lon="-0.54984">
        <ele>212.8</ele>
        <time>2013-10-06T10:32:33Z</time>
      </trkpt>
      <trkpt lat="48.75101" lon="-0.54983">
        <ele>212.8</ele>
        <time>2013-10-06T10:32:34Z</time>
      </trkpt>
      <trkpt lat="48.75109" lon="-0.54984">
        <ele>212.8</ele>
        <time>2013-10-06T10:32:35Z</time>
      </trkpt>
      <trkpt lat="48.75191" lon="-0.54968">
        <ele>215.2</ele>
        <time>2013-10-06T10:32:44Z</time>
      </trkpt>
      <trkpt lat="48.75249" lon="-0.5494">
        <ele>218.6</ele>
        <time>2013-10-06T10:32:50Z</time>
      </trkpt>
      <trkpt lat="48.7531" lon="-0.54911">
        <ele>221.6</ele>
        <time>2013-10-06T10:32:56Z</time>
      </trkpt>
      <trkpt lat="48.75319" lon="-0.54905">
        <ele>222.6</ele>
        <time>2013-10-06T10:32:57Z</time>
      </trkpt>
      <trkpt lat="48.75376" lon="-0.5487">
        <ele>224.8</ele>
        <time>2013-10-06T10:33:05Z</time>
      </trkpt>
      <trkpt lat="48.75386" lon="-0.54861">
        <ele>225</ele>
        <time>2013-10-06T10:33:07Z</time>
      </trkpt>
      <trkpt lat="48.75393" lon="-0.54853">
        <ele>225.4</ele>
        <time>2013-10-06T10:33:08Z</time>
      </trkpt>
      <trkpt lat="48.75399" lon="-0.54844">
        <ele>225.6</ele>
        <time>2013-10-06T10:33:09Z</time>
      </trkpt>
      <trkpt lat="48.75406" lon="-0.54832">
        <ele>225.8</ele>
        <time>2013-10-06T10:33:10Z</time>
      </trkpt>
      <trkpt lat="48.75413" lon="-0.54818">
        <ele>226.2</ele>
        <time>2013-10-06T10:33:11Z</time>
      </trkpt>
      <trkpt lat="48.75483" lon="-0.54716">
        <ele>229.4</ele>
        <time>2013-10-06T10:33:17Z</time>
      </trkpt>
      <trkpt lat="48.75552" lon="-0.54648">
        <ele>232.6</ele>
        <time>2013-10-06T10:33:23Z</time>
      </trkpt>
      <trkpt lat="48.756" lon="-0.54606">
        <ele>235.8</ele>
        <time>2013-10-06T10:33:27Z</time>
      </trkpt>
      <trkpt lat="48.75644" lon="-0.54569">
        <ele>240.2</ele>
        <time>2013-10-06T10:33:31Z</time>
      </trkpt>
      <trkpt lat="48.75694" lon="-0.54522">
        <ele>243.2</ele>
        <time>2013-10-06T10:33:36Z</time>
      </trkpt>
      <trkpt lat="48.75778" lon="-0.54445">
        <ele>246.6</ele>
        <time>2013-10-06T10:33:45Z</time>
      </trkpt>
      <trkpt lat="48.75807" lon="-0.54419">
        <ele>248.6</ele>
        <time>2013-10-06T10:33:53Z</time>
      </trkpt>
      <trkpt lat="48.75808" lon="-0.54419">
        <ele>249.4</ele>
        <time>2013-10-06T10:33:58Z</time>
      </trkpt>
      <trkpt lat="48.75795" lon="-0.54439">
        <ele>249.8</ele>
        <time>2013-10-06T10:34:09Z</time>
      </trkpt>
      <trkpt lat="48.75778" lon="-0.54453">
        <ele>248.6</ele>
        <time>2013-10-06T10:34:20Z</time>
      </trkpt>
      <trkpt lat="48.74772" lon="-0.57147">
        <ele>233</ele>
        <time>2013-10-07T07:08:36Z</time>
      </trkpt>
      <trkpt lat="48.74769" lon="-0.57135">
        <ele>232.8</ele>
        <time>2013-10-07T07:08:37Z</time>
      </trkpt>
      <trkpt lat="48.74749" lon="-0.571">
        <ele>233.2</ele>
        <time>2013-10-07T07:09:06Z</time>
      </trkpt>
      <trkpt lat="48.74774" lon="-0.57197">
        <ele>227.2</ele>
        <time>2013-10-07T08:57:42Z</time>
      </trkpt>
      <trkpt lat="48.74782" lon="-0.57254">
        <ele>227.2</ele>
        <time>2013-10-07T08:59:17Z</time>
      </trkpt>
      <trkpt lat="48.74781" lon="-0.572">
        <ele>227.2</ele>
        <time>2013-10-07T09:01:35Z</time>
      </trkpt>
      <trkpt lat="48.74783" lon="-0.5721">
        <ele>227.4</ele>
        <time>2013-10-07T09:10:33Z</time>
      </trkpt>
      <trkpt lat="48.74776" lon="-0.57206">
        <ele>227.4</ele>
        <time>2013-10-07T09:12:50Z</time>
      </trkpt>
      <trkpt lat="48.74791" lon="-0.57227">
        <ele>227.6</ele>
        <time>2013-10-07T09:14:20Z</time>
      </trkpt>
      <trkpt lat="48.74785" lon="-0.5722">
        <ele>227.2</ele>
        <time>2013-10-07T09:17:45Z</time>
      </trkpt>
      <trkpt lat="48.74779" lon="-0.57124">
        <ele>226.6</ele>
        <time>2013-10-07T09:25:25Z</time>
      </trkpt>
      <trkpt lat="48.74766" lon="-0.57089">
        <ele>227.2</ele>
        <time>2013-10-07T09:35:56Z</time>
      </trkpt>
      <trkpt lat="48.74737" lon="-0.57083">
        <ele>227.2</ele>
        <time>2013-10-07T09:36:19Z</time>
      </trkpt>
      <trkpt lat="48.74777" lon="-0.5715">
        <ele>228.6</ele>
        <time>2013-10-07T10:59:39Z</time>
      </trkpt>
      <trkpt lat="48.74768" lon="-0.57196">
        <ele>228.8</ele>
        <time>2013-10-07T11:00:19Z</time>
      </trkpt>
      <trkpt lat="48.74777" lon="-0.57213">
        <ele>228.6</ele>
        <time>2013-10-07T11:00:59Z</time>
      </trkpt>
      <trkpt lat="48.74799" lon="-0.5725">
        <ele>235.8</ele>
        <time>2013-10-07T12:21:22Z</time>
      </trkpt>
      <trkpt lat="48.748" lon="-0.5725">
        <ele>235.8</ele>
        <time>2013-10-07T12:21:23Z</time>
      </trkpt>
      <trkpt lat="48.748" lon="-0.5725">
        <ele>235.8</ele>
        <time>2013-10-07T12:21:24Z</time>
      </trkpt>
      <trkpt lat="48.74782" lon="-0.5721">
        <ele>225.8</ele>
        <time>2013-10-11T14:12:04Z</time>
      </trkpt>
      <trkpt lat="48.74782" lon="-0.57211">
        <ele>225.8</ele>
        <time>2013-10-11T14:12:05Z</time>
      </trkpt>
    </trkseg>
  </trk>
</gpx>